Observation data for Wall on 07/17/2019      Previous  Date  Next       Current Mesonet Observations  Soil Data  Daily Summary Page  Observations in Plain Language
KWA1 170500Z 14010KT 28/19 A30 RMK A01 T02810188  RH  057%=      5-min Rain = 0
KWA1 170501Z 15009KT 28/19 A30 RMK A01 T02810188  RH  057%=      5-min Rain = 0
KWA1 170502Z 15010KT 28/19 A30 RMK A01 T02810187  RH  057%=      5-min Rain = 0
KWA1 170503Z 14009KT 28/19 A30 RMK A01 T02810188  RH  057%=      5-min Rain = 0
KWA1 170504Z 14009KT 28/19 A30 RMK A01 T02810187  RH  057%=      5-min Rain = 0
KWA1 170505Z 15008KT 28/19 A30 RMK A01 T02810187  RH  057%=      5-min Rain = 0
KWA1 170506Z 15008KT 28/19 A30 RMK A01 T02810187  RH  057%=      5-min Rain = 0
KWA1 170507Z 14009KT 28/19 A30 RMK A01 T02810188  RH  057%=      5-min Rain = 0
KWA1 170508Z 15008KT 28/19 A30 RMK A01 T02810187  RH  057%=      5-min Rain = 0
KWA1 170509Z 14007KT 28/19 A30 RMK A01 T02810188  RH  057%=      5-min Rain = 0
KWA1 170510Z 15008KT 28/19 A30 RMK A01 T02810188  RH  057%=      5-min Rain = 0
KWA1 170511Z 15008KT 28/19 A30 RMK A01 T02800188  RH  057%=      5-min Rain = 0
KWA1 170512Z 15008KT 28/19 A30 RMK A01 T02810189  RH  057%=      5-min Rain = 0
KWA1 170513Z 14008KT 28/19 A30 RMK A01 T02800188  RH  057%=      5-min Rain = 0
KWA1 170514Z 15008KT 28/19 A30 RMK A01 T02800188  RH  057%=      5-min Rain = 0
KWA1 170515Z 15008KT 28/19 A30 RMK A01 T02800188  RH  057%=      5-min Rain = 0
KWA1 170516Z 14007KT 28/19 A30 RMK A01 T02790188  RH  058%=      5-min Rain = 0
KWA1 170517Z 14007KT 28/19 A30 RMK A01 T02790188  RH  058%=      5-min Rain = 0
KWA1 170518Z 14007KT 28/19 A30 RMK A01 T02790188  RH  058%=      5-min Rain = 0
KWA1 170519Z 14007KT 28/19 A30 RMK A01 T02790189  RH  058%=      5-min Rain = 0
KWA1 170520Z 14008KT 28/19 A30 RMK A01 T02790189  RH  058%=      5-min Rain = 0
KWA1 170521Z 14007KT 28/19 A30 RMK A01 T02790189  RH  058%=      5-min Rain = 0
KWA1 170522Z 15007KT 28/19 A30 RMK A01 T02790189  RH  058%=      5-min Rain = 0
KWA1 170523Z 15007KT 28/19 A30 RMK A01 T02790189  RH  058%=      5-min Rain = 0
KWA1 170524Z 15008KT 28/19 A30 RMK A01 T02790190  RH  058%=      5-min Rain = 0
KWA1 170525Z 14007KT 28/19 A30 RMK A01 T02780190  RH  058%=      5-min Rain = 0
KWA1 170526Z 14008KT 28/19 A30 RMK A01 T02780190  RH  059%=      5-min Rain = 0
KWA1 170527Z 14008KT 28/19 A30 RMK A01 T02780190  RH  059%=      5-min Rain = 0
KWA1 170528Z 14008KT 28/19 A30 RMK A01 T02780190  RH  059%=      5-min Rain = 0
KWA1 170529Z 14008KT 28/19 A30 RMK A01 T02780190  RH  059%=      5-min Rain = 0
KWA1 170530Z 14009KT 28/19 A30 RMK A01 T02780191  RH  059%=      5-min Rain = 0
KWA1 170531Z 14008KT 28/19 A30 RMK A01 T02780191  RH  059%=      5-min Rain = 0
KWA1 170532Z 14008KT 28/19 A30 RMK A01 T02780191  RH  059%=      5-min Rain = 0
KWA1 170533Z 14008KT 28/19 A30 RMK A01 T02780191  RH  059%=      5-min Rain = 0
KWA1 170534Z 14008KT 28/19 A30 RMK A01 T02780191  RH  059%=      5-min Rain = 0
KWA1 170535Z 14008KT 28/19 A30 RMK A01 T02780191  RH  059%=      5-min Rain = 0
KWA1 170536Z 14008KT 28/19 A30 RMK A01 T02780192  RH  059%=      5-min Rain = 0
KWA1 170537Z 14008KT 28/19 A30 RMK A01 T02780191  RH  059%=      5-min Rain = 0
KWA1 170538Z 14008KT 28/19 A30 RMK A01 T02780192  RH  059%=      5-min Rain = 0
KWA1 170539Z 14009KT 28/19 A30 RMK A01 T02780192  RH  060%=      5-min Rain = 0
KWA1 170540Z 14009KT 28/19 A30 RMK A01 T02770192  RH  060%=      5-min Rain = 0
KWA1 170541Z 14009KT 28/19 A30 RMK A01 T02780193  RH  060%=      5-min Rain = 0
KWA1 170542Z 15009KT 28/19 A30 RMK A01 T02780193  RH  060%=      5-min Rain = 0
KWA1 170543Z 14009KT 28/19 A30 RMK A01 T02780193  RH  060%=      5-min Rain = 0
KWA1 170544Z 14010KT 28/19 A30 RMK A01 T02780194  RH  060%=      5-min Rain = 0
KWA1 170545Z 14010KT 28/19 A30 RMK A01 T02780194  RH  060%=      5-min Rain = 0
KWA1 170546Z 14011KT 28/19 A30 RMK A01 T02780194  RH  060%=      5-min Rain = 0
KWA1 170547Z 14009KT 28/19 A30 RMK A01 T02780194  RH  060%=      5-min Rain = 0
KWA1 170548Z 15011KT 28/19 A30 RMK A01 T02780194  RH  060%=      5-min Rain = 0
KWA1 170549Z 14010KT 28/20 A30 RMK A01 T02790195  RH  060%=      5-min Rain = 0
KWA1 170550Z 14010KT 28/20 A30 RMK A01 T02790195  RH  060%=      5-min Rain = 0
KWA1 170551Z 15009KT 28/20 A30 RMK A01 T02790195  RH  060%=      5-min Rain = 0
KWA1 170552Z 14010KT 28/20 A30 RMK A01 T02790195  RH  060%=      5-min Rain = 0
KWA1 170553Z 14009KT 28/20 A30 RMK A01 T02790195  RH  060%=      5-min Rain = 0
KWA1 170554Z 15009KT 28/20 A30 RMK A01 T02790195  RH  060%=      5-min Rain = 0
KWA1 170555Z 14009KT 28/20 A30 RMK A01 T02790196  RH  061%=      5-min Rain = 0
KWA1 170556Z 15010KT 28/20 A30 RMK A01 T02780195  RH  061%=      5-min Rain = 0
KWA1 170557Z 15010KT 28/20 A30 RMK A01 T02780196  RH  061%=      5-min Rain = 0
KWA1 170558Z 15010KT 28/20 A30 RMK A01 T02780196  RH  061%=      5-min Rain = 0
KWA1 170559Z 15011KT 28/20 A30 RMK A01 T02780196  RH  061%=      5-min Rain = 0
KWA1 170600Z 15010KT 28/20 A30 RMK A01 T02780196  RH  061%=      5-min Rain = 0
KWA1 170601Z 15009KT 28/20 A30 RMK A01 T02790197  RH  061%=      5-min Rain = 0
KWA1 170602Z 14008KT 28/20 A30 RMK A01 T02780196  RH  061%=      5-min Rain = 0
KWA1 170603Z 14009KT 28/20 A30 RMK A01 T02770196  RH  061%=      5-min Rain = 0
KWA1 170604Z 15009KT 28/20 A30 RMK A01 T02770196  RH  061%=      5-min Rain = 0
KWA1 170605Z 14009KT 28/20 A30 RMK A01 T02770196  RH  061%=      5-min Rain = 0
KWA1 170606Z 15009KT 28/20 A30 RMK A01 T02770196  RH  061%=      5-min Rain = 0
KWA1 170607Z 15011KT 28/20 A30 RMK A01 T02770197  RH  062%=      5-min Rain = 0
KWA1 170608Z 15010KT 28/20 A30 RMK A01 T02770197  RH  062%=      5-min Rain = 0
KWA1 170609Z 15010KT 28/20 A30 RMK A01 T02770197  RH  062%=      5-min Rain = 0
KWA1 170610Z 14010KT 28/20 A30 RMK A01 T02770197  RH  062%=      5-min Rain = 0
KWA1 170611Z 15011KT 28/20 A30 RMK A01 T02770197  RH  062%=      5-min Rain = 0
KWA1 170612Z 14010KT 28/20 A30 RMK A01 T02770197  RH  062%=      5-min Rain = 0
KWA1 170613Z 14011KT 28/20 A30 RMK A01 T02780198  RH  062%=      5-min Rain = 0
KWA1 170614Z 15010KT 28/20 A30 RMK A01 T02770197  RH  062%=      5-min Rain = 0
KWA1 170615Z 15011KT 28/20 A30 RMK A01 T02770197  RH  062%=      5-min Rain = 0
KWA1 170616Z 15011KT 28/20 A30 RMK A01 T02770198  RH  062%=      5-min Rain = 0
KWA1 170617Z 15010KT 28/20 A30 RMK A01 T02770198  RH  062%=      5-min Rain = 0
KWA1 170618Z 15010KT 28/20 A30 RMK A01 T02770198  RH  062%=      5-min Rain = 0
KWA1 170619Z 15012KT 28/20 A30 RMK A01 T02770198  RH  062%=      5-min Rain = 0
KWA1 170620Z 14012KT 28/20 A30 RMK A01 T02770199  RH  062%=      5-min Rain = 0
KWA1 170621Z 15012KT 28/20 A30 RMK A01 T02770199  RH  062%=      5-min Rain = 0
KWA1 170622Z 15013KT 28/20 A30 RMK A01 T02770199  RH  062%=      5-min Rain = 0
KWA1 170623Z 14012KT 28/20 A30 RMK A01 T02770198  RH  062%=      5-min Rain = 0
KWA1 170624Z 15011KT 28/20 A30 RMK A01 T02780199  RH  062%=      5-min Rain = 0
KWA1 170625Z 15013KT 28/20 A30 RMK A01 T02780199  RH  062%=      5-min Rain = 0
KWA1 170626Z 15011KT 28/20 A30 RMK A01 T02770199  RH  062%=      5-min Rain = 0
KWA1 170627Z 15010KT 28/20 A30 RMK A01 T02770199  RH  063%=      5-min Rain = 0
KWA1 170628Z 15012KT 28/20 A30 RMK A01 T02770200  RH  063%=      5-min Rain = 0
KWA1 170629Z 15012KT 28/20 A30 RMK A01 T02770200  RH  063%=      5-min Rain = 0
KWA1 170630Z 15012KT 28/20 A30 RMK A01 T02770200  RH  063%=      5-min Rain = 0
KWA1 170631Z 15013KT 28/20 A30 RMK A01 T02770200  RH  063%=      5-min Rain = 0
KWA1 170632Z 15012KT 28/20 A30 RMK A01 T02770200  RH  063%=      5-min Rain = 0
KWA1 170633Z 15013KT 28/20 A30 RMK A01 T02770200  RH  063%=      5-min Rain = 0
KWA1 170634Z 15015KT 28/20 A30 RMK A01 T02770200  RH  063%=      5-min Rain = 0
KWA1 170635Z 15013KT 28/20 A30 RMK A01 T02770201  RH  063%=      5-min Rain = 0
KWA1 170636Z 15013KT 28/20 A30 RMK A01 T02770201  RH  063%=      5-min Rain = 0
KWA1 170637Z 15013KT 28/20 A30 RMK A01 T02770201  RH  063%=      5-min Rain = 0
KWA1 170638Z 15013KT 28/20 A30 RMK A01 T02770201  RH  063%=      5-min Rain = 0
KWA1 170639Z 14013KT 28/20 A30 RMK A01 T02770201  RH  063%=      5-min Rain = 0
KWA1 170640Z 15014KT 28/20 A30 RMK A01 T02770202  RH  063%=      5-min Rain = 0
KWA1 170641Z 15013KT 28/20 A30 RMK A01 T02780202  RH  063%=      5-min Rain = 0
KWA1 170642Z 15013KT 28/20 A30 RMK A01 T02770202  RH  063%=      5-min Rain = 0
KWA1 170643Z 15014KT 28/20 A30 RMK A01 T02770202  RH  064%=      5-min Rain = 0
KWA1 170644Z 15013KT 28/20 A30 RMK A01 T02770203  RH  064%=      5-min Rain = 0
KWA1 170645Z 15013KT 28/20 A30 RMK A01 T02770202  RH  064%=      5-min Rain = 0
KWA1 170646Z 15012KT 28/20 A30 RMK A01 T02770202  RH  064%=      5-min Rain = 0
KWA1 170647Z 15011KT 28/20 A3001 RMK A01 T02770202  RH  064%=      5-min Rain = 0
KWA1 170648Z 15012KT 28/20 A3001 RMK A01 T02760203  RH  064%=      5-min Rain = 0
KWA1 170649Z 15011KT 28/20 A3001 RMK A01 T02760203  RH  064%=      5-min Rain = 0
KWA1 170650Z 16012KT 28/20 A3001 RMK A01 T02760202  RH  064%=      5-min Rain = 0
KWA1 170651Z 16015KT 28/20 A3001 RMK A01 T02760203  RH  064%=      5-min Rain = 0
KWA1 170652Z 16012KT 28/20 A3001 RMK A01 T02760203  RH  065%=      5-min Rain = 0
KWA1 170653Z 15013KT 28/20 A3001 RMK A01 T02760204  RH  065%=      5-min Rain = 0
KWA1 170654Z 15012KT 28/20 A3001 RMK A01 T02760204  RH  065%=      5-min Rain = 0
KWA1 170655Z 15011KT 28/20 A3001 RMK A01 T02760204  RH  065%=      5-min Rain = 0
KWA1 170656Z 15011KT 28/20 A3001 RMK A01 T02760204  RH  065%=      5-min Rain = 0
KWA1 170657Z 15013KT 28/20 A3001 RMK A01 T02760204  RH  065%=      5-min Rain = 0
KWA1 170658Z 15011KT 28/20 A3001 RMK A01 T02760204  RH  065%=      5-min Rain = 0
KWA1 170659Z 16013KT 28/20 A3001 RMK A01 T02750204  RH  065%=      5-min Rain = 0
KWA1 170700Z 15012KT 28/20 A3001 RMK A01 T02750204  RH  065%=      5-min Rain = 0
KWA1 170701Z 16013KT 28/20 A3001 RMK A01 T02750204  RH  065%=      5-min Rain = 0
KWA1 170702Z 15012KT 28/21 A3001 RMK A01 T02750205  RH  066%=      5-min Rain = 0
KWA1 170703Z 15013KT 28/21 A3001 RMK A01 T02750205  RH  066%=      5-min Rain = 0
KWA1 170704Z 15012KT 27/21 A3001 RMK A01 T02740205  RH  066%=      5-min Rain = 0
KWA1 170705Z 15012KT 27/21 A3001 RMK A01 T02740205  RH  066%=      5-min Rain = 0
KWA1 170706Z 15012KT 27/21 A3001 RMK A01 T02740205  RH  066%=      5-min Rain = 0
KWA1 170707Z 15011KT 27/21 A3001 RMK A01 T02740205  RH  066%=      5-min Rain = 0
KWA1 170708Z 15012KT 27/21 A3001 RMK A01 T02740205  RH  066%=      5-min Rain = 0
KWA1 170709Z 16013KT 27/21 A3001 RMK A01 T02740205  RH  066%=      5-min Rain = 0
KWA1 170710Z 16011KT 27/21 A3001 RMK A01 T02730205  RH  066%=      5-min Rain = 0
KWA1 170711Z 15013KT 27/21 A3001 RMK A01 T02730205  RH  066%=      5-min Rain = 0
KWA1 170712Z 15013KT 27/21 A3001 RMK A01 T02730206  RH  067%=      5-min Rain = 0
KWA1 170713Z 15011KT 27/21 A3001 RMK A01 T02730206  RH  067%=      5-min Rain = 0
KWA1 170714Z 15012KT 27/21 A3001 RMK A01 T02740206  RH  067%=      5-min Rain = 0
KWA1 170715Z 16012KT 27/21 A3001 RMK A01 T02730206  RH  067%=      5-min Rain = 0
KWA1 170716Z 15010KT 27/21 A3001 RMK A01 T02730206  RH  067%=      5-min Rain = 0
KWA1 170717Z 16012KT 27/21 A3001 RMK A01 T02730206  RH  067%=      5-min Rain = 0
KWA1 170718Z 16013KT 27/21 A3001 RMK A01 T02720206  RH  067%=      5-min Rain = 0
KWA1 170719Z 15011KT 27/21 A3001 RMK A01 T02730207  RH  067%=      5-min Rain = 0
KWA1 170720Z 15013KT 27/21 A3001 RMK A01 T02720206  RH  067%=      5-min Rain = 0
KWA1 170721Z 16012KT 27/21 A3001 RMK A01 T02720207  RH  067%=      5-min Rain = 0
KWA1 170722Z 15013KT 27/21 A3001 RMK A01 T02720207  RH  068%=      5-min Rain = 0
KWA1 170723Z 15012KT 27/21 A3001 RMK A01 T02720207  RH  068%=      5-min Rain = 0
KWA1 170724Z 16012KT 27/21 A3001 RMK A01 T02720208  RH  068%=      5-min Rain = 0
KWA1 170725Z 16012KT 27/21 A3001 RMK A01 T02720208  RH  068%=      5-min Rain = 0
KWA1 170726Z 15011KT 27/21 A3001 RMK A01 T02720207  RH  068%=      5-min Rain = 0
KWA1 170727Z 15011KT 27/21 A3001 RMK A01 T02720208  RH  068%=      5-min Rain = 0
KWA1 170728Z 16011KT 27/21 A3001 RMK A01 T02710207  RH  068%=      5-min Rain = 0
KWA1 170729Z 16011KT 27/21 A3001 RMK A01 T02710208  RH  068%=      5-min Rain = 0
KWA1 170730Z 16011KT 27/21 A3001 RMK A01 T02700207  RH  068%=      5-min Rain = 0
KWA1 170731Z 15010KT 27/21 A3001 RMK A01 T02710208  RH  069%=      5-min Rain = 0
KWA1 170732Z 16010KT 27/21 A3001 RMK A01 T02710208  RH  069%=      5-min Rain = 0
KWA1 170733Z 16011KT 27/21 A3001 RMK A01 T02700208  RH  069%=      5-min Rain = 0
KWA1 170734Z 15010KT 27/21 A3001 RMK A01 T02700208  RH  069%=      5-min Rain = 0
KWA1 170735Z 16011KT 27/21 A3001 RMK A01 T02700208  RH  069%=      5-min Rain = 0
KWA1 170736Z 16012KT 27/21 A3001 RMK A01 T02700208  RH  069%=      5-min Rain = 0
KWA1 170737Z 16012KT 27/21 A3001 RMK A01 T02700209  RH  069%=      5-min Rain = 0
KWA1 170738Z 16012KT 27/21 A3001 RMK A01 T02700209  RH  069%=      5-min Rain = 0
KWA1 170739Z 16011KT 27/21 A3001 RMK A01 T02700209  RH  069%=      5-min Rain = 0
KWA1 170740Z 16011KT 27/21 A3001 RMK A01 T02700209  RH  069%=      5-min Rain = 0
KWA1 170741Z 16012KT 27/21 A3001 RMK A01 T02700209  RH  069%=      5-min Rain = 0
KWA1 170742Z 16012KT 27/21 A3001 RMK A01 T02700210  RH  070%=      5-min Rain = 0
KWA1 170743Z 16011KT 27/21 A3001 RMK A01 T02700209  RH  070%=      5-min Rain = 0
KWA1 170744Z 16010KT 27/21 A3001 RMK A01 T02690209  RH  070%=      5-min Rain = 0
KWA1 170745Z 16011KT 27/21 A3001 RMK A01 T02690209  RH  070%=      5-min Rain = 0
KWA1 170746Z 16010KT 27/21 A3001 RMK A01 T02690209  RH  070%=      5-min Rain = 0
KWA1 170747Z 15013KT 27/21 A3001 RMK A01 T02680209  RH  070%=      5-min Rain = 0
KWA1 170748Z 16011KT 27/21 A3001 RMK A01 T02680210  RH  070%=      5-min Rain = 0
KWA1 170749Z 16012KT 27/21 A3001 RMK A01 T02690210  RH  070%=      5-min Rain = 0
KWA1 170750Z 15011KT 27/21 A3001 RMK A01 T02680210  RH  070%=      5-min Rain = 0
KWA1 170751Z 15011KT 27/21 A3001 RMK A01 T02680210  RH  070%=      5-min Rain = 0
KWA1 170752Z 15011KT 27/21 A3001 RMK A01 T02680210  RH  070%=      5-min Rain = 0
KWA1 170753Z 15011KT 27/21 A3001 RMK A01 T02680210  RH  070%=      5-min Rain = 0
KWA1 170754Z 15010KT 27/21 A3001 RMK A01 T02680210  RH  070%=      5-min Rain = 0
KWA1 170755Z 15010KT 27/21 A3001 RMK A01 T02680210  RH  071%=      5-min Rain = 0
KWA1 170756Z 16010KT 27/21 A3001 RMK A01 T02680210  RH  071%=      5-min Rain = 0
KWA1 170757Z 16010KT 27/21 A3001 RMK A01 T02670210  RH  071%=      5-min Rain = 0
KWA1 170758Z 15009KT 27/21 A3001 RMK A01 T02670210  RH  071%=      5-min Rain = 0
KWA1 170759Z 16010KT 27/21 A3001 RMK A01 T02670210  RH  071%=      5-min Rain = 0
KWA1 170800Z 16011KT 27/21 A3001 RMK A01 T02670211  RH  071%=      5-min Rain = 0
KWA1 170801Z 16010KT 27/21 A3001 RMK A01 T02670210  RH  071%=      5-min Rain = 0
KWA1 170802Z 15011KT 27/21 A3001 RMK A01 T02670210  RH  071%=      5-min Rain = 0
KWA1 170803Z 16012KT 27/21 A3001 RMK A01 T02670211  RH  071%=      5-min Rain = 0
KWA1 170804Z 15010KT 27/21 A3001 RMK A01 T02670211  RH  071%=      5-min Rain = 0
KWA1 170805Z 16010KT 27/21 A3001 RMK A01 T02660211  RH  071%=      5-min Rain = 0
KWA1 170806Z 15012KT 27/21 A3001 RMK A01 T02670211  RH  072%=      5-min Rain = 0
KWA1 170807Z 16013KT 27/21 A3001 RMK A01 T02660211  RH  072%=      5-min Rain = 0
KWA1 170808Z 15011KT 27/21 A3001 RMK A01 T02660211  RH  072%=      5-min Rain = 0
KWA1 170809Z 16011KT 27/21 A3001 RMK A01 T02660211  RH  072%=      5-min Rain = 0
KWA1 170810Z 15011KT 27/21 A3001 RMK A01 T02660211  RH  072%=      5-min Rain = 0
KWA1 170811Z 16010KT 27/21 A3001 RMK A01 T02660211  RH  072%=      5-min Rain = 0
KWA1 170812Z 16011KT 27/21 A3001 RMK A01 T02650211  RH  072%=      5-min Rain = 0
KWA1 170813Z 15012KT 27/21 A3001 RMK A01 T02650211  RH  072%=      5-min Rain = 0
KWA1 170814Z 16011KT 27/21 A3001 RMK A01 T02650211  RH  072%=      5-min Rain = 0
KWA1 170815Z 15012KT 27/21 A3001 RMK A01 T02650211  RH  072%=      5-min Rain = 0
KWA1 170816Z 16011KT 27/21 A3001 RMK A01 T02650212  RH  072%=      5-min Rain = 0
KWA1 170817Z 15010KT 27/21 A3001 RMK A01 T02650212  RH  072%=      5-min Rain = 0
KWA1 170818Z 16012KT 27/21 A3001 RMK A01 T02650212  RH  073%=      5-min Rain = 0
KWA1 170819Z 16012KT 27/21 A30 RMK A01 T02650212  RH  073%=      5-min Rain = 0
KWA1 170820Z 16012KT 27/21 A30 RMK A01 T02650212  RH  073%=      5-min Rain = 0
KWA1 170821Z 16012KT 27/21 A30 RMK A01 T02650212  RH  073%=      5-min Rain = 0
KWA1 170822Z 16012KT 27/21 A30 RMK A01 T02650212  RH  073%=      5-min Rain = 0
KWA1 170823Z 16012KT 26/21 A30 RMK A01 T02640212  RH  073%=      5-min Rain = 0
KWA1 170824Z 16010KT 26/21 A30 RMK A01 T02640212  RH  073%=      5-min Rain = 0
KWA1 170825Z 16012KT 26/21 A30 RMK A01 T02640212  RH  073%=      5-min Rain = 0
KWA1 170826Z 16012KT 26/21 A30 RMK A01 T02640213  RH  073%=      5-min Rain = 0
KWA1 170827Z 16013KT 26/21 A30 RMK A01 T02640213  RH  073%=      5-min Rain = 0
KWA1 170828Z 16011KT 26/21 A30 RMK A01 T02640212  RH  073%=      5-min Rain = 0
KWA1 170829Z 16011KT 26/21 A30 RMK A01 T02640213  RH  073%=      5-min Rain = 0
KWA1 170830Z 16011G16KT 26/21 A30 RMK A01 T02640213  RH  073%=      5-min Rain = 0
KWA1 170831Z 15012KT 26/21 A30 RMK A01 T02640213  RH  074%=      5-min Rain = 0
KWA1 170832Z 16010KT 26/21 A30 RMK A01 T02640213  RH  073%=      5-min Rain = 0
KWA1 170833Z 16012KT 26/21 A30 RMK A01 T02630212  RH  074%=      5-min Rain = 0
KWA1 170834Z 16011KT 26/21 A30 RMK A01 T02630213  RH  074%=      5-min Rain = 0
KWA1 170835Z 16013KT 26/21 A30 RMK A01 T02630213  RH  074%=      5-min Rain = 0
KWA1 170836Z 16012KT 26/21 A30 RMK A01 T02630213  RH  074%=      5-min Rain = 0
KWA1 170837Z 16012KT 26/21 A30 RMK A01 T02630213  RH  074%=      5-min Rain = 0
KWA1 170838Z 16013KT 26/21 A30 RMK A01 T02630213  RH  074%=      5-min Rain = 0
KWA1 170839Z 16015KT 26/21 A30 RMK A01 T02630213  RH  074%=      5-min Rain = 0
KWA1 170840Z 16015KT 26/21 A30 RMK A01 T02630213  RH  074%=      5-min Rain = 0
KWA1 170841Z 16013KT 26/21 A30 RMK A01 T02630214  RH  074%=      5-min Rain = 0
KWA1 170842Z 15013KT 26/21 A30 RMK A01 T02630213  RH  074%=      5-min Rain = 0
KWA1 170843Z 16013KT 26/21 A30 RMK A01 T02630213  RH  074%=      5-min Rain = 0
KWA1 170844Z 16014KT 26/21 A30 RMK A01 T02630214  RH  074%=      5-min Rain = 0
KWA1 170845Z 16013KT 26/21 A30 RMK A01 T02630214  RH  074%=      5-min Rain = 0
KWA1 170846Z 16012G17KT 26/21 A30 RMK A01 T02620214  RH  075%=      5-min Rain = 0
KWA1 170847Z 16013KT 26/22 A30 RMK A01 T02630215  RH  075%=      5-min Rain = 0
KWA1 170848Z 16016KT 26/22 A30 RMK A01 T02620215  RH  075%=      5-min Rain = 0
KWA1 170849Z 16012KT 26/22 A30 RMK A01 T02620215  RH  075%=      5-min Rain = 0
KWA1 170850Z 16012KT 26/22 A3001 RMK A01 T02620215  RH  075%=      5-min Rain = 0
KWA1 170851Z 16012KT 26/22 A30 RMK A01 T02620215  RH  075%=      5-min Rain = 0
KWA1 170852Z 16012KT 26/22 A30 RMK A01 T02620215  RH  075%=      5-min Rain = 0
KWA1 170853Z 17014KT 26/22 A30 RMK A01 T02610215  RH  075%=      5-min Rain = 0
KWA1 170854Z 16014KT 26/22 A30 RMK A01 T02610215  RH  075%=      5-min Rain = 0
KWA1 170855Z 16013KT 26/22 A30 RMK A01 T02610215  RH  075%=      5-min Rain = 0
KWA1 170856Z 16011KT 26/22 A30 RMK A01 T02610215  RH  075%=      5-min Rain = 0
KWA1 170857Z 16012KT 26/22 A30 RMK A01 T02610215  RH  075%=      5-min Rain = 0
KWA1 170858Z 16014KT 26/22 A30 RMK A01 T02620215  RH  076%=      5-min Rain = 0
KWA1 170859Z 16014KT 26/22 A30 RMK A01 T02610215  RH  076%=      5-min Rain = 0
KWA1 170900Z 16013KT 26/22 A30 RMK A01 T02620216  RH  076%=      5-min Rain = 0
KWA1 170901Z 16012KT 26/22 A30 RMK A01 T02610216  RH  076%=      5-min Rain = 0
KWA1 170902Z 16014KT 26/22 A30 RMK A01 T02620216  RH  076%=      5-min Rain = 0
KWA1 170903Z 16014KT 26/22 A30 RMK A01 T02610216  RH  076%=      5-min Rain = 0
KWA1 170904Z 16011KT 26/22 A30 RMK A01 T02620216  RH  076%=      5-min Rain = 0
KWA1 170905Z 16010KT 26/22 A30 RMK A01 T02610216  RH  076%=      5-min Rain = 0
KWA1 170906Z 16013KT 26/22 A30 RMK A01 T02610216  RH  076%=      5-min Rain = 0
KWA1 170907Z 17012KT 26/22 A30 RMK A01 T02610216  RH  076%=      5-min Rain = 0
KWA1 170908Z 17014KT 26/22 A30 RMK A01 T02610216  RH  076%=      5-min Rain = 0
KWA1 170909Z 16012KT 26/22 A30 RMK A01 T02610216  RH  076%=      5-min Rain = 0
KWA1 170910Z 16011KT 26/22 A30 RMK A01 T02610216  RH  076%=      5-min Rain = 0
KWA1 170911Z 16011KT 26/22 A30 RMK A01 T02600216  RH  076%=      5-min Rain = 0
KWA1 170912Z 16012KT 26/22 A30 RMK A01 T02600216  RH  076%=      5-min Rain = 0
KWA1 170913Z 16013KT 26/22 A30 RMK A01 T02600216  RH  077%=      5-min Rain = 0
KWA1 170914Z 16013KT 26/22 A30 RMK A01 T02600216  RH  077%=      5-min Rain = 0
KWA1 170915Z 16012KT 26/22 A30 RMK A01 T02600216  RH  077%=      5-min Rain = 0
KWA1 170916Z 17013KT 26/22 A30 RMK A01 T02600216  RH  077%=      5-min Rain = 0
KWA1 170917Z 17013KT 26/22 A30 RMK A01 T02600216  RH  077%=      5-min Rain = 0
KWA1 170918Z 17011KT 26/22 A30 RMK A01 T02600216  RH  077%=      5-min Rain = 0
KWA1 170919Z 16010KT 26/22 A30 RMK A01 T02600216  RH  077%=      5-min Rain = 0
KWA1 170920Z 17010KT 26/22 A30 RMK A01 T02590216  RH  077%=      5-min Rain = 0
KWA1 170921Z 16012KT 26/22 A30 RMK A01 T02590216  RH  077%=      5-min Rain = 0
KWA1 170922Z 16012KT 26/22 A30 RMK A01 T02590216  RH  077%=      5-min Rain = 0
KWA1 170923Z 17011KT 26/22 A30 RMK A01 T02590216  RH  077%=      5-min Rain = 0
KWA1 170924Z 16013KT 26/22 A30 RMK A01 T02590216  RH  077%=      5-min Rain = 0
KWA1 170925Z 16014KT 26/22 A30 RMK A01 T02590215  RH  077%=      5-min Rain = 0
KWA1 170926Z 16011KT 26/22 A30 RMK A01 T02590216  RH  077%=      5-min Rain = 0
KWA1 170927Z 17011KT 26/22 A30 RMK A01 T02590216  RH  077%=      5-min Rain = 0
KWA1 170928Z 16012KT 26/22 A30 RMK A01 T02580216  RH  077%=      5-min Rain = 0
KWA1 170929Z 17014KT 26/22 A30 RMK A01 T02580216  RH  077%=      5-min Rain = 0
KWA1 170930Z 16011KT 26/22 A30 RMK A01 T02580216  RH  077%=      5-min Rain = 0
KWA1 170931Z 17012KT 26/22 A30 RMK A01 T02580216  RH  077%=      5-min Rain = 0
KWA1 170932Z 17012KT 26/22 A30 RMK A01 T02580216  RH  077%=      5-min Rain = 0
KWA1 170933Z 17012KT 26/22 A30 RMK A01 T02590216  RH  077%=      5-min Rain = 0
KWA1 170934Z 16012KT 26/22 A30 RMK A01 T02580216  RH  077%=      5-min Rain = 0
KWA1 170935Z 16011KT 26/22 A30 RMK A01 T02580216  RH  077%=      5-min Rain = 0
KWA1 170936Z 16011KT 26/22 A30 RMK A01 T02580216  RH  077%=      5-min Rain = 0
KWA1 170937Z 16011KT 26/22 A30 RMK A01 T02580216  RH  078%=      5-min Rain = 0
KWA1 170938Z 16012KT 26/22 A30 RMK A01 T02580216  RH  078%=      5-min Rain = 0
KWA1 170939Z 16011KT 26/22 A30 RMK A01 T02580216  RH  078%=      5-min Rain = 0
KWA1 170940Z 16009KT 26/22 A30 RMK A01 T02570215  RH  078%=      5-min Rain = 0
KWA1 170941Z 16012KT 26/22 A30 RMK A01 T02570216  RH  078%=      5-min Rain = 0
KWA1 170942Z 16011KT 26/22 A30 RMK A01 T02570216  RH  078%=      5-min Rain = 0
KWA1 170943Z 16009KT 26/22 A30 RMK A01 T02570216  RH  078%=      5-min Rain = 0
KWA1 170944Z 16009KT 26/22 A30 RMK A01 T02570216  RH  078%=      5-min Rain = 0
KWA1 170945Z 16009KT 26/22 A30 RMK A01 T02560215  RH  078%=      5-min Rain = 0
KWA1 170946Z 16012KT 26/22 A30 RMK A01 T02560216  RH  078%=      5-min Rain = 0
KWA1 170947Z 16011KT 26/22 A30 RMK A01 T02560216  RH  079%=      5-min Rain = 0
KWA1 170948Z 16009KT 26/22 A30 RMK A01 T02560216  RH  079%=      5-min Rain = 0
KWA1 170949Z 17009KT 26/22 A30 RMK A01 T02550215  RH  078%=      5-min Rain = 0
KWA1 170950Z 17009KT 26/22 A30 RMK A01 T02550215  RH  079%=      5-min Rain = 0
KWA1 170951Z 17009KT 26/22 A30 RMK A01 T02550215  RH  079%=      5-min Rain = 0
KWA1 170952Z 16010KT 26/22 A30 RMK A01 T02550216  RH  079%=      5-min Rain = 0
KWA1 170953Z 17012KT 26/22 A30 RMK A01 T02550216  RH  079%=      5-min Rain = 0
KWA1 170954Z 17010KT 26/22 A30 RMK A01 T02550216  RH  079%=      5-min Rain = 0
KWA1 170955Z 17009KT 26/22 A30 RMK A01 T02550216  RH  079%=      5-min Rain = 0
KWA1 170956Z 17011KT 26/22 A30 RMK A01 T02550216  RH  079%=      5-min Rain = 0
KWA1 170957Z 17012KT 26/22 A30 RMK A01 T02550216  RH  079%=      5-min Rain = 0
KWA1 170958Z 17011KT 26/22 A30 RMK A01 T02550216  RH  079%=      5-min Rain = 0
KWA1 170959Z 18012KT 26/22 A30 RMK A01 T02550216  RH  079%=      5-min Rain = 0
KWA1 171000Z 17012KT 26/22 A30 RMK A01 T02550216  RH  079%=      5-min Rain = 0
KWA1 171001Z 17011KT 26/22 A30 RMK A01 T02550216  RH  079%=      5-min Rain = 0
KWA1 171002Z 17011KT 25/22 A30 RMK A01 T02540215  RH  079%=      5-min Rain = 0
KWA1 171003Z 17013KT 26/22 A30 RMK A01 T02550216  RH  079%=      5-min Rain = 0
KWA1 171004Z 17012KT 26/22 A30 RMK A01 T02550216  RH  079%=      5-min Rain = 0
KWA1 171005Z 17010KT 26/22 A30 RMK A01 T02550216  RH  079%=      5-min Rain = 0
KWA1 171006Z 17010KT 26/22 A30 RMK A01 T02550216  RH  079%=      5-min Rain = 0
KWA1 171007Z 17012KT 25/22 A30 RMK A01 T02540216  RH  079%=      5-min Rain = 0
KWA1 171008Z 16013KT 25/22 A30 RMK A01 T02540216  RH  079%=      5-min Rain = 0
KWA1 171009Z 17011KT 25/22 A30 RMK A01 T02540215  RH  079%=      5-min Rain = 0
KWA1 171010Z 17011KT 25/22 A30 RMK A01 T02540215  RH  079%=      5-min Rain = 0
KWA1 171011Z 17013KT 25/22 A30 RMK A01 T02540216  RH  079%=      5-min Rain = 0
KWA1 171012Z 18010KT 25/22 A3001 RMK A01 T02540216  RH  079%=      5-min Rain = 0
KWA1 171013Z 17011KT 25/22 A3001 RMK A01 T02540215  RH  079%=      5-min Rain = 0
KWA1 171014Z 18009KT 25/22 A3001 RMK A01 T02540216  RH  079%=      5-min Rain = 0
KWA1 171015Z 18009KT 25/22 A3001 RMK A01 T02540215  RH  079%=      5-min Rain = 0
KWA1 171016Z 17011KT 25/22 A3001 RMK A01 T02540215  RH  079%=      5-min Rain = 0
KWA1 171017Z 18011KT 25/22 A3001 RMK A01 T02540215  RH  079%=      5-min Rain = 0
KWA1 171018Z 17012KT 25/22 A3001 RMK A01 T02540215  RH  079%=      5-min Rain = 0
KWA1 171019Z 17013KT 25/22 A3001 RMK A01 T02540215  RH  079%=      5-min Rain = 0
KWA1 171020Z 17011KT 25/22 A3001 RMK A01 T02540215  RH  079%=      5-min Rain = 0
KWA1 171021Z 18011KT 25/22 A3001 RMK A01 T02540215  RH  079%=      5-min Rain = 0
KWA1 171022Z 17013KT 25/22 A3001 RMK A01 T02540215  RH  079%=      5-min Rain = 0
KWA1 171023Z 18012KT 25/22 A3001 RMK A01 T02540216  RH  079%=      5-min Rain = 0
KWA1 171024Z 18013KT 25/22 A3001 RMK A01 T02540215  RH  079%=      5-min Rain = 0
KWA1 171025Z 17012G17KT 25/22 A3001 RMK A01 T02540215  RH  079%=      5-min Rain = 0
KWA1 171026Z 17013KT 25/22 A3001 RMK A01 T02540215  RH  079%=      5-min Rain = 0
KWA1 171027Z 17013KT 25/22 A3001 RMK A01 T02530215  RH  079%=      5-min Rain = 0
KWA1 171028Z 17014KT 25/22 A3001 RMK A01 T02530215  RH  079%=      5-min Rain = 0
KWA1 171029Z 17014KT 25/22 A3001 RMK A01 T02530215  RH  079%=      5-min Rain = 0
KWA1 171030Z 17011KT 25/22 A3001 RMK A01 T02530215  RH  079%=      5-min Rain = 0
KWA1 171031Z 18011KT 25/22 A3001 RMK A01 T02530215  RH  079%=      5-min Rain = 0
KWA1 171032Z 18010KT 25/22 A3001 RMK A01 T02530215  RH  079%=      5-min Rain = 0
KWA1 171033Z 17008KT 25/22 A3001 RMK A01 T02530215  RH  079%=      5-min Rain = 0
KWA1 171034Z 18012KT 25/22 A3001 RMK A01 T02530215  RH  079%=      5-min Rain = 0
KWA1 171035Z 17014KT 25/22 A3001 RMK A01 T02520215  RH  080%=      5-min Rain = 0
KWA1 171036Z 18013KT 25/22 A3001 RMK A01 T02530215  RH  080%=      5-min Rain = 0
KWA1 171037Z 18011KT 25/22 A3001 RMK A01 T02530215  RH  080%=      5-min Rain = 0
KWA1 171038Z 18009KT 25/22 A3001 RMK A01 T02530215  RH  079%=      5-min Rain = 0
KWA1 171039Z 18010KT 25/22 A3001 RMK A01 T02530215  RH  080%=      5-min Rain = 0
KWA1 171040Z 18012KT 25/22 A3001 RMK A01 T02520215  RH  080%=      5-min Rain = 0
KWA1 171041Z 18011KT 25/22 A3001 RMK A01 T02520215  RH  080%=      5-min Rain = 0
KWA1 171042Z 18010KT 25/22 A3002 RMK A01 T02520215  RH  080%=      5-min Rain = 0
KWA1 171043Z 18010KT 25/22 A3002 RMK A01 T02520215  RH  080%=      5-min Rain = 0
KWA1 171044Z 17014KT 25/22 A3001 RMK A01 T02520215  RH  080%=      5-min Rain = 0
KWA1 171045Z 18012KT 25/22 A3002 RMK A01 T02520215  RH  080%=      5-min Rain = 0
KWA1 171046Z 18009KT 25/21 A3002 RMK A01 T02510214  RH  080%=      5-min Rain = 0
KWA1 171047Z 18009KT 25/21 A3002 RMK A01 T02510214  RH  080%=      5-min Rain = 0
KWA1 171048Z 18010KT 25/21 A3002 RMK A01 T02510214  RH  080%=      5-min Rain = 0
KWA1 171049Z 18011KT 25/21 A3002 RMK A01 T02510214  RH  080%=      5-min Rain = 0
KWA1 171050Z 18010KT 25/22 A3002 RMK A01 T02510215  RH  080%=      5-min Rain = 0
KWA1 171051Z 18011KT 25/21 A3002 RMK A01 T02510214  RH  080%=      5-min Rain = 0
KWA1 171052Z 18010KT 25/22 A3002 RMK A01 T02510215  RH  080%=      5-min Rain = 0
KWA1 171053Z 18008KT 25/22 A3002 RMK A01 T02510215  RH  080%=      5-min Rain = 0
KWA1 171054Z 18011KT 25/21 A3002 RMK A01 T02510214  RH  080%=      5-min Rain = 0
KWA1 171055Z 17011KT 25/22 A3002 RMK A01 T02510215  RH  080%=      5-min Rain = 0
KWA1 171056Z 19009KT 25/22 A3002 RMK A01 T02510215  RH  080%=      5-min Rain = 0
KWA1 171057Z 19012KT 25/21 A3002 RMK A01 T02510214  RH  080%=      5-min Rain = 0
KWA1 171058Z 18010KT 25/21 A3002 RMK A01 T02510214  RH  080%=      5-min Rain = 0
KWA1 171059Z 18009KT 25/21 A3002 RMK A01 T02510214  RH  080%=      5-min Rain = 0
KWA1 171100Z 18011KT 25/21 A3002 RMK A01 T02510214  RH  080%=      5-min Rain = 0
KWA1 171101Z 18010KT 25/21 A3002 RMK A01 T02510214  RH  080%=      5-min Rain = 0
KWA1 171102Z 18010KT 25/21 A3002 RMK A01 T02500214  RH  080%=      5-min Rain = 0
KWA1 171103Z 19009KT 25/22 A3002 RMK A01 T02510215  RH  080%=      5-min Rain = 0
KWA1 171104Z 19010KT 25/21 A3002 RMK A01 T02500214  RH  080%=      5-min Rain = 0
KWA1 171105Z 18010KT 25/21 A3002 RMK A01 T02500214  RH  080%=      5-min Rain = 0
KWA1 171106Z 19010KT 25/21 A3002 RMK A01 T02500214  RH  080%=      5-min Rain = 0
KWA1 171107Z 19011KT 25/21 A3002 RMK A01 T02500214  RH  080%=      5-min Rain = 0
KWA1 171108Z 19009KT 25/21 A3002 RMK A01 T02500214  RH  080%=      5-min Rain = 0
KWA1 171109Z 19008KT 25/21 A3002 RMK A01 T02500213  RH  080%=      5-min Rain = 0
KWA1 171110Z 19007KT 25/21 A3002 RMK A01 T02500214  RH  080%=      5-min Rain = 0
KWA1 171111Z 18006KT 25/21 A3002 RMK A01 T02500214  RH  080%=      5-min Rain = 0
KWA1 171112Z 18006KT 25/21 A3002 RMK A01 T02500213  RH  080%=      5-min Rain = 0
KWA1 171113Z 18008KT 25/21 A3002 RMK A01 T02490213  RH  080%=      5-min Rain = 0
KWA1 171114Z 18008KT 25/21 A3002 RMK A01 T02490214  RH  081%=      5-min Rain = 0
KWA1 171115Z 18008KT 25/21 A3002 RMK A01 T02490213  RH  081%=      5-min Rain = 0
KWA1 171116Z 18010KT 25/21 A3002 RMK A01 T02490213  RH  081%=      5-min Rain = 0
KWA1 171117Z 18009KT 25/21 A3002 RMK A01 T02490213  RH  081%=      5-min Rain = 0
KWA1 171118Z 19007KT 25/21 A3002 RMK A01 T02490213  RH  080%=      5-min Rain = 0
KWA1 171119Z 18007KT 25/21 A3002 RMK A01 T02490213  RH  080%=      5-min Rain = 0
KWA1 171120Z 18007KT 25/21 A3002 RMK A01 T02490213  RH  080%=      5-min Rain = 0
KWA1 171121Z 17008KT 25/21 A3002 RMK A01 T02490213  RH  080%=      5-min Rain = 0
KWA1 171122Z 18008KT 25/21 A3002 RMK A01 T02480212  RH  080%=      5-min Rain = 0
KWA1 171123Z 19007KT 25/21 A3002 RMK A01 T02480212  RH  080%=      5-min Rain = 0
KWA1 171124Z 18005KT 25/21 A3002 RMK A01 T02480212  RH  080%=      5-min Rain = 0
KWA1 171125Z 18009KT 25/21 A3002 RMK A01 T02480212  RH  080%=      5-min Rain = 0
KWA1 171126Z 19010KT 25/21 A3002 RMK A01 T02480212  RH  080%=      5-min Rain = 0
KWA1 171127Z 18009KT 25/21 A3002 RMK A01 T02480212  RH  080%=      5-min Rain = 0
KWA1 171128Z 18008KT 25/21 A3002 RMK A01 T02480212  RH  080%=      5-min Rain = 0
KWA1 171129Z 18009KT 25/21 A3002 RMK A01 T02480211  RH  080%=      5-min Rain = 0
KWA1 171130Z 18010KT 25/21 A3002 RMK A01 T02480211  RH  080%=      5-min Rain = 0
KWA1 171131Z 19008KT 25/21 A3002 RMK A01 T02490211  RH  080%=      5-min Rain = 0
KWA1 171132Z 18008KT 25/21 A3002 RMK A01 T02490211  RH  080%=      5-min Rain = 0
KWA1 171133Z 19008KT 25/21 A3002 RMK A01 T02480211  RH  080%=      5-min Rain = 0
KWA1 171134Z 18008KT 25/21 A3002 RMK A01 T02480211  RH  080%=      5-min Rain = 0
KWA1 171135Z 18008KT 25/21 A3002 RMK A01 T02480211  RH  080%=      5-min Rain = 0
KWA1 171136Z 18010KT 25/21 A3002 RMK A01 T02480211  RH  080%=      5-min Rain = 0
KWA1 171137Z 18010KT 25/21 A3002 RMK A01 T02480211  RH  080%=      5-min Rain = 0
KWA1 171138Z 19010KT 25/21 A3002 RMK A01 T02480211  RH  080%=      5-min Rain = 0
KWA1 171139Z 18008KT 25/21 A3002 RMK A01 T02480211  RH  080%=      5-min Rain = 0
KWA1 171140Z 19007KT 25/21 A3003 RMK A01 T02480211  RH  080%=      5-min Rain = 0
KWA1 171141Z 19009KT 25/21 A3003 RMK A01 T02480211  RH  080%=      5-min Rain = 0
KWA1 171142Z 19009KT 25/21 A3003 RMK A01 T02480210  RH  080%=      5-min Rain = 0
KWA1 171143Z 19009KT 25/21 A3003 RMK A01 T02480211  RH  080%=      5-min Rain = 0
KWA1 171144Z 19009KT 25/21 A3003 RMK A01 T02480211  RH  080%=      5-min Rain = 0
KWA1 171145Z 19007KT 25/21 A3003 RMK A01 T02470210  RH  080%=      5-min Rain = 0
KWA1 171146Z 19008KT 25/21 A3003 RMK A01 T02470211  RH  080%=      5-min Rain = 0
KWA1 171147Z 19009KT 25/21 A3003 RMK A01 T02470210  RH  080%=      5-min Rain = 0
KWA1 171148Z 18010KT 25/21 A3002 RMK A01 T02470211  RH  080%=      5-min Rain = 0
KWA1 171149Z 19010KT 25/21 A3002 RMK A01 T02470210  RH  080%=      5-min Rain = 0
KWA1 171150Z 18009KT 25/21 A3002 RMK A01 T02470210  RH  080%=      5-min Rain = 0
KWA1 171151Z 19009KT 25/21 A3002 RMK A01 T02470210  RH  080%=      5-min Rain = 0
KWA1 171152Z 19009KT 25/21 A3002 RMK A01 T02470210  RH  080%=      5-min Rain = 0
KWA1 171153Z 19008KT 25/21 A3002 RMK A01 T02470210  RH  080%=      5-min Rain = 0
KWA1 171154Z 18008KT 25/21 A3002 RMK A01 T02470210  RH  080%=      5-min Rain = 0
KWA1 171155Z 18009KT 25/21 A3002 RMK A01 T02460210  RH  080%=      5-min Rain = 0
KWA1 171156Z 18009KT 25/21 A3002 RMK A01 T02460210  RH  080%=      5-min Rain = 0
KWA1 171157Z 19008KT 25/21 A3002 RMK A01 T02460210  RH  080%=      5-min Rain = 0
KWA1 171158Z 19010KT 25/21 A3002 RMK A01 T02460210  RH  080%=      5-min Rain = 0
KWA1 171159Z 18007KT 25/21 A3002 RMK A01 T02460210  RH  080%=      5-min Rain = 0
KWA1 171200Z 18009KT 25/21 A3002 RMK A01 T02460209  RH  080%=      5-min Rain = 0
KWA1 171201Z 18008KT 25/21 A3002 RMK A01 T02460210  RH  080%=      5-min Rain = 0
KWA1 171202Z 18009KT 25/21 A3002 RMK A01 T02460210  RH  080%=      5-min Rain = 0
KWA1 171203Z 18008KT 25/21 A3002 RMK A01 T02460209  RH  080%=      5-min Rain = 0
KWA1 171204Z 18008KT 25/21 A3002 RMK A01 T02460210  RH  080%=      5-min Rain = 0
KWA1 171205Z 18008KT 25/21 A3002 RMK A01 T02460210  RH  080%=      5-min Rain = 0
KWA1 171206Z 18009KT 25/21 A3002 RMK A01 T02460210  RH  080%=      5-min Rain = 0
KWA1 171207Z 18008KT 25/21 A3002 RMK A01 T02460210  RH  081%=      5-min Rain = 0
KWA1 171208Z 18008KT 25/21 A3002 RMK A01 T02460210  RH  081%=      5-min Rain = 0
KWA1 171209Z 18011KT 25/21 A3002 RMK A01 T02460210  RH  081%=      5-min Rain = 0
KWA1 171210Z 18010KT 25/21 A3002 RMK A01 T02460211  RH  081%=      5-min Rain = 0
KWA1 171211Z 19011KT 25/21 A3002 RMK A01 T02460211  RH  081%=      5-min Rain = 0
KWA1 171212Z 19009KT 25/21 A3002 RMK A01 T02470211  RH  080%=      5-min Rain = 0
KWA1 171213Z 18009KT 25/21 A3002 RMK A01 T02460210  RH  080%=      5-min Rain = 0
KWA1 171214Z 18010KT 25/21 A3002 RMK A01 T02460211  RH  081%=      5-min Rain = 0
KWA1 171215Z 19010KT 25/21 A3002 RMK A01 T02470211  RH  081%=      5-min Rain = 0
KWA1 171216Z 18009KT 25/21 A3002 RMK A01 T02460211  RH  080%=      5-min Rain = 0
KWA1 171217Z 18010KT 25/21 A3002 RMK A01 T02460211  RH  080%=      5-min Rain = 0
KWA1 171218Z 18009KT 25/21 A3002 RMK A01 T02460211  RH  080%=      5-min Rain = 0
KWA1 171219Z 18010KT 25/21 A3002 RMK A01 T02470211  RH  080%=      5-min Rain = 0
KWA1 171220Z 18009KT 25/21 A3002 RMK A01 T02470211  RH  080%=      5-min Rain = 0
KWA1 171221Z 18008KT 25/21 A3003 RMK A01 T02470211  RH  080%=      5-min Rain = 0
KWA1 171222Z 17006KT 25/21 A3003 RMK A01 T02470211  RH  080%=      5-min Rain = 0
KWA1 171223Z 19006KT 25/21 A3003 RMK A01 T02470211  RH  080%=      5-min Rain = 0
KWA1 171224Z 18005KT 25/21 A3003 RMK A01 T02470211  RH  080%=      5-min Rain = 0
KWA1 171225Z 18005KT 25/21 A3003 RMK A01 T02470211  RH  080%=      5-min Rain = 0
KWA1 171226Z 18006KT 25/21 A3003 RMK A01 T02470211  RH  080%=      5-min Rain = 0
KWA1 171227Z 18006KT 25/21 A3003 RMK A01 T02470211  RH  080%=      5-min Rain = 0
KWA1 171228Z 19007KT 25/21 A3003 RMK A01 T02470211  RH  080%=      5-min Rain = 0
KWA1 171229Z 18006KT 25/21 A3003 RMK A01 T02470211  RH  080%=      5-min Rain = 0
KWA1 171230Z 18006KT 25/21 A3003 RMK A01 T02470211  RH  080%=      5-min Rain = 0
KWA1 171231Z 18006KT 25/21 A3003 RMK A01 T02480211  RH  080%=      5-min Rain = 0
KWA1 171232Z 19006KT 25/21 A3003 RMK A01 T02480211  RH  080%=      5-min Rain = 0
KWA1 171233Z 18005KT 25/21 A3003 RMK A01 T02480211  RH  080%=      5-min Rain = 0
KWA1 171234Z 18008KT 25/21 A3004 RMK A01 T02480211  RH  079%=      5-min Rain = 0
KWA1 171235Z 18007KT 25/21 A3004 RMK A01 T02480210  RH  079%=      5-min Rain = 0
KWA1 171236Z 17006KT 25/21 A3004 RMK A01 T02490210  RH  079%=      5-min Rain = 0
KWA1 171237Z 18007KT 25/21 A3004 RMK A01 T02490210  RH  079%=      5-min Rain = 0
KWA1 171238Z 17007KT 25/21 A3004 RMK A01 T02490210  RH  079%=      5-min Rain = 0
KWA1 171239Z 18006KT 25/21 A3004 RMK A01 T02490209  RH  079%=      5-min Rain = 0
KWA1 171240Z 18006KT 25/21 A3004 RMK A01 T02490210  RH  079%=      5-min Rain = 0
KWA1 171241Z 17007KT 25/21 A3004 RMK A01 T02500210  RH  078%=      5-min Rain = 0
KWA1 171242Z 18007KT 25/21 A3004 RMK A01 T02500210  RH  078%=      5-min Rain = 0
KWA1 171243Z 18005KT 25/21 A3004 RMK A01 T02510210  RH  078%=      5-min Rain = 0
KWA1 171244Z 18006KT 25/21 A3004 RMK A01 T02510210  RH  078%=      5-min Rain = 0
KWA1 171245Z 17005KT 25/21 A3004 RMK A01 T02510210  RH  078%=      5-min Rain = 0
KWA1 171246Z 17005KT 25/21 A3004 RMK A01 T02520210  RH  078%=      5-min Rain = 0
KWA1 171247Z 17004KT 25/21 A3004 RMK A01 T02520210  RH  078%=      5-min Rain = 0
KWA1 171248Z 17006KT 25/21 A3004 RMK A01 T02520210  RH  077%=      5-min Rain = 0
KWA1 171249Z 17007KT 25/21 A3004 RMK A01 T02520208  RH  077%=      5-min Rain = 0
KWA1 171250Z 18006KT 25/21 A3004 RMK A01 T02530209  RH  077%=      5-min Rain = 0
KWA1 171251Z 16010KT 25/21 A3004 RMK A01 T02530209  RH  077%=      5-min Rain = 0
KWA1 171252Z 17009KT 25/21 A3004 RMK A01 T02530208  RH  076%=      5-min Rain = 0
KWA1 171253Z 17006KT 25/21 A3004 RMK A01 T02530209  RH  076%=      5-min Rain = 0
KWA1 171254Z 18006KT 25/21 A3004 RMK A01 T02540209  RH  076%=      5-min Rain = 0
KWA1 171255Z 17006KT 25/21 A3004 RMK A01 T02540210  RH  076%=      5-min Rain = 0
KWA1 171256Z 17006KT 25/21 A3004 RMK A01 T02540209  RH  076%=      5-min Rain = 0
KWA1 171257Z 18008KT 26/21 A3004 RMK A01 T02550209  RH  076%=      5-min Rain = 0
KWA1 171258Z 18008KT 26/21 A3004 RMK A01 T02550209  RH  075%=      5-min Rain = 0
KWA1 171259Z 17010KT 26/21 A3004 RMK A01 T02550207  RH  075%=      5-min Rain = 0
KWA1 171300Z 17008KT 26/21 A3005 RMK A01 T02550207  RH  075%=      5-min Rain = 0
KWA1 171301Z 18010KT 26/21 A3005 RMK A01 T02550207  RH  075%=      5-min Rain = 0
KWA1 171302Z 18007KT 26/21 A3005 RMK A01 T02550208  RH  075%=      5-min Rain = 0
KWA1 171303Z 18008KT 26/21 A3005 RMK A01 T02560207  RH  075%=      5-min Rain = 0
KWA1 171304Z 17007KT 26/21 A3005 RMK A01 T02560207  RH  074%=      5-min Rain = 0
KWA1 171305Z 17007KT 26/21 A3005 RMK A01 T02560207  RH  074%=      5-min Rain = 0
KWA1 171306Z 18009KT 26/21 A3005 RMK A01 T02570207  RH  074%=      5-min Rain = 0
KWA1 171307Z 16008KT 26/21 A3005 RMK A01 T02570207  RH  074%=      5-min Rain = 0
KWA1 171308Z 18008KT 26/21 A3005 RMK A01 T02570207  RH  074%=      5-min Rain = 0
KWA1 171309Z 17010KT 26/21 A3005 RMK A01 T02570206  RH  073%=      5-min Rain = 0
KWA1 171310Z 17011KT 26/21 A3005 RMK A01 T02570206  RH  073%=      5-min Rain = 0
KWA1 171311Z 17008KT 26/21 A3005 RMK A01 T02580206  RH  073%=      5-min Rain = 0
KWA1 171312Z 18009G14KT 26/21 A3005 RMK A01 T02590207  RH  073%=      5-min Rain = 0
KWA1 171313Z 18011KT 26/21 A3005 RMK A01 T02590205  RH  072%=      5-min Rain = 0
KWA1 171314Z 18013KT 26/21 A3005 RMK A01 T02580205  RH  072%=      5-min Rain = 0
KWA1 171315Z 17011KT 26/21 A3005 RMK A01 T02580205  RH  072%=      5-min Rain = 0
KWA1 171316Z 18011KT 26/21 A3005 RMK A01 T02590205  RH  072%=      5-min Rain = 0
KWA1 171317Z 18012KT 26/21 A3005 RMK A01 T02590205  RH  072%=      5-min Rain = 0
KWA1 171318Z 18014KT 26/20 A3005 RMK A01 T02590203  RH  071%=      5-min Rain = 0
KWA1 171319Z 18010KT 26/20 A3005 RMK A01 T02590204  RH  071%=      5-min Rain = 0
KWA1 171320Z 18010KT 26/21 A3005 RMK A01 T02600205  RH  072%=      5-min Rain = 0
KWA1 171321Z 17012G17KT 26/20 A3005 RMK A01 T02600204  RH  071%=      5-min Rain = 0
KWA1 171322Z 18012KT 26/20 A3005 RMK A01 T02610203  RH  070%=      5-min Rain = 0
KWA1 171323Z 17013KT 26/20 A3005 RMK A01 T02600204  RH  071%=      5-min Rain = 0
KWA1 171324Z 17013KT 26/20 A3005 RMK A01 T02600204  RH  071%=      5-min Rain = 0
KWA1 171325Z 17015KT 26/20 A3005 RMK A01 T02600203  RH  071%=      5-min Rain = 0
KWA1 171326Z 17013KT 26/20 A3005 RMK A01 T02600203  RH  071%=      5-min Rain = 0
KWA1 171327Z 18013KT 26/20 A3005 RMK A01 T02610204  RH  071%=      5-min Rain = 0
KWA1 171328Z 17012KT 26/20 A3005 RMK A01 T02610204  RH  071%=      5-min Rain = 0
KWA1 171329Z 18014KT 26/20 A3005 RMK A01 T02610203  RH  070%=      5-min Rain = 0
KWA1 171330Z 18012G18KT 26/20 A3005 RMK A01 T02610204  RH  071%=      5-min Rain = 0
KWA1 171331Z 18016KT 26/20 A3005 RMK A01 T02610203  RH  070%=      5-min Rain = 0
KWA1 171332Z 17013KT 26/20 A3005 RMK A01 T02610203  RH  071%=      5-min Rain = 0
KWA1 171333Z 17016KT 26/20 A3005 RMK A01 T02610203  RH  070%=      5-min Rain = 0
KWA1 171334Z 18015KT 26/20 A3005 RMK A01 T02610202  RH  070%=      5-min Rain = 0
KWA1 171335Z 18014KT 26/20 A3005 RMK A01 T02610203  RH  070%=      5-min Rain = 0
KWA1 171336Z 17014KT 26/20 A3005 RMK A01 T02620202  RH  070%=      5-min Rain = 0
KWA1 171337Z 17015KT 26/20 A3005 RMK A01 T02620202  RH  070%=      5-min Rain = 0
KWA1 171338Z 17016KT 26/20 A3005 RMK A01 T02610202  RH  070%=      5-min Rain = 0
KWA1 171339Z 17015KT 26/20 A3005 RMK A01 T02620202  RH  070%=      5-min Rain = 0
KWA1 171340Z 18017KT 26/20 A3005 RMK A01 T02620202  RH  070%=      5-min Rain = 0
KWA1 171341Z 17015KT 26/20 A3005 RMK A01 T02610201  RH  069%=      5-min Rain = 0
KWA1 171342Z 17016G21KT 26/20 A3005 RMK A01 T02620202  RH  070%=      5-min Rain = 0
KWA1 171343Z 18016KT 26/20 A3005 RMK A01 T02620202  RH  069%=      5-min Rain = 0
KWA1 171344Z 17014KT 26/20 A3005 RMK A01 T02630202  RH  069%=      5-min Rain = 0
KWA1 171345Z 17015KT 26/20 A3005 RMK A01 T02630202  RH  069%=      5-min Rain = 0
KWA1 171346Z 17016KT 26/20 A3006 RMK A01 T02630202  RH  069%=      5-min Rain = 0
KWA1 171347Z 17016KT 26/20 A3006 RMK A01 T02630202  RH  069%=      5-min Rain = 0
KWA1 171348Z 18014G20KT 26/20 A3006 RMK A01 T02630202  RH  069%=      5-min Rain = 0
KWA1 171349Z 18013KT 26/20 A3006 RMK A01 T02640204  RH  069%=      5-min Rain = 0
KWA1 171350Z 18015KT 27/20 A3006 RMK A01 T02650204  RH  069%=      5-min Rain = 0
KWA1 171351Z 18014KT 27/20 A3006 RMK A01 T02650203  RH  069%=      5-min Rain = 0
KWA1 171352Z 17014KT 27/20 A3006 RMK A01 T02650204  RH  069%=      5-min Rain = 0
KWA1 171353Z 17014KT 27/20 A3006 RMK A01 T02660204  RH  069%=      5-min Rain = 0
KWA1 171354Z 17015KT 27/20 A3006 RMK A01 T02670203  RH  068%=      5-min Rain = 0
KWA1 171355Z 17015KT 27/20 A3006 RMK A01 T02660203  RH  068%=      5-min Rain = 0
KWA1 171356Z 17015KT 27/20 A3006 RMK A01 T02650202  RH  068%=      5-min Rain = 0
KWA1 171357Z 17015KT 27/20 A3006 RMK A01 T02650203  RH  069%=      5-min Rain = 0
KWA1 171358Z 17015KT 27/20 A3006 RMK A01 T02660204  RH  068%=      5-min Rain = 0
KWA1 171359Z 17015KT 27/20 A3006 RMK A01 T02670203  RH  068%=      5-min Rain = 0
KWA1 171400Z 18012KT 27/21 A3006 RMK A01 T02670205  RH  069%=      5-min Rain = 0
KWA1 171401Z 19015KT 27/20 A3006 RMK A01 T02670204  RH  068%=      5-min Rain = 0
KWA1 171402Z 19013KT 27/21 A3006 RMK A01 T02680205  RH  069%=      5-min Rain = 0
KWA1 171403Z 18013KT 27/21 A3006 RMK A01 T02670205  RH  068%=      5-min Rain = 0
KWA1 171404Z 17011KT 27/21 A3006 RMK A01 T02670205  RH  069%=      5-min Rain = 0
KWA1 171405Z 17013G18KT 27/21 A3006 RMK A01 T02690206  RH  069%=      5-min Rain = 0
KWA1 171406Z 17014KT 27/21 A3005 RMK A01 T02700205  RH  068%=      5-min Rain = 0
KWA1 171407Z 18013KT 27/21 A3005 RMK A01 T02700206  RH  068%=      5-min Rain = 0
KWA1 171408Z 17012KT 27/21 A3006 RMK A01 T02700206  RH  068%=      5-min Rain = 0
KWA1 171409Z 17014KT 27/21 A3006 RMK A01 T02710206  RH  068%=      5-min Rain = 0
KWA1 171410Z 17014KT 27/21 A3006 RMK A01 T02720205  RH  067%=      5-min Rain = 0
KWA1 171411Z 18015KT 27/21 A3006 RMK A01 T02710205  RH  067%=      5-min Rain = 0
KWA1 171412Z 18015KT 27/20 A3005 RMK A01 T02710204  RH  067%=      5-min Rain = 0
KWA1 171413Z 17015KT 27/21 A3005 RMK A01 T02700205  RH  068%=      5-min Rain = 0
KWA1 171414Z 17018KT 27/20 A3005 RMK A01 T02710204  RH  067%=      5-min Rain = 0
KWA1 171415Z 17016KT 27/20 A3006 RMK A01 T02700204  RH  067%=      5-min Rain = 0
KWA1 171416Z 17016KT 27/21 A3005 RMK A01 T02700205  RH  067%=      5-min Rain = 0
KWA1 171417Z 17016KT 27/20 A3005 RMK A01 T02700204  RH  067%=      5-min Rain = 0
KWA1 171418Z 18015G20KT 27/21 A3005 RMK A01 T02700205  RH  068%=      5-min Rain = 0
KWA1 171419Z 19014KT 27/21 A3006 RMK A01 T02710205  RH  068%=      5-min Rain = 0
KWA1 171420Z 19015KT 27/21 A3006 RMK A01 T02720206  RH  067%=      5-min Rain = 0
KWA1 171421Z 19017KT 27/21 A3006 RMK A01 T02720205  RH  067%=      5-min Rain = 0
KWA1 171422Z 19016KT 27/20 A3006 RMK A01 T02700204  RH  067%=      5-min Rain = 0
KWA1 171423Z 19016KT 27/20 A3006 RMK A01 T02690204  RH  068%=      5-min Rain = 0
KWA1 171424Z 18014KT 27/21 A3006 RMK A01 T02690205  RH  068%=      5-min Rain = 0
KWA1 171425Z 18014KT 27/21 A3006 RMK A01 T02700206  RH  068%=      5-min Rain = 0
KWA1 171426Z 19016KT 27/20 A3006 RMK A01 T02710204  RH  067%=      5-min Rain = 0
KWA1 171427Z 19015KT 27/21 A3006 RMK A01 T02710205  RH  067%=      5-min Rain = 0
KWA1 171428Z 19017KT 27/21 A3006 RMK A01 T02710205  RH  067%=      5-min Rain = 0
KWA1 171429Z 18015KT 27/21 A3006 RMK A01 T02710205  RH  067%=      5-min Rain = 0
KWA1 171430Z 18015KT 27/21 A3006 RMK A01 T02720206  RH  067%=      5-min Rain = 0
KWA1 171431Z 18016KT 27/21 A3006 RMK A01 T02730205  RH  067%=      5-min Rain = 0
KWA1 171432Z 18016KT 27/21 A3006 RMK A01 T02740205  RH  066%=      5-min Rain = 0
KWA1 171433Z 17015KT 27/21 A3006 RMK A01 T02740205  RH  066%=      5-min Rain = 0
KWA1 171434Z 18015KT 28/21 A3006 RMK A01 T02750205  RH  066%=      5-min Rain = 0
KWA1 171435Z 18015KT 28/21 A3006 RMK A01 T02750205  RH  066%=      5-min Rain = 0
KWA1 171436Z 18017KT 28/20 A3006 RMK A01 T02760204  RH  065%=      5-min Rain = 0
KWA1 171437Z 18014KT 28/20 A3006 RMK A01 T02750204  RH  065%=      5-min Rain = 0
KWA1 171438Z 18014KT 27/21 A3006 RMK A01 T02740205  RH  066%=      5-min Rain = 0
KWA1 171439Z 18015KT 28/21 A3006 RMK A01 T02750205  RH  066%=      5-min Rain = 0
KWA1 171440Z 18014KT 28/21 A3006 RMK A01 T02750205  RH  065%=      5-min Rain = 0
KWA1 171441Z 17013KT 28/21 A3006 RMK A01 T02750205  RH  066%=      5-min Rain = 0
KWA1 171442Z 16016KT 28/21 A3006 RMK A01 T02760205  RH  065%=      5-min Rain = 0
KWA1 171443Z 17013KT 28/21 A3006 RMK A01 T02770205  RH  065%=      5-min Rain = 0
KWA1 171444Z 18015G20KT 28/21 A3006 RMK A01 T02780205  RH  065%=      5-min Rain = 0
KWA1 171445Z 18017KT 28/20 A3006 RMK A01 T02780204  RH  064%=      5-min Rain = 0
KWA1 171446Z 18015KT 28/20 A3006 RMK A01 T02770204  RH  064%=      5-min Rain = 0
KWA1 171447Z 18015KT 28/20 A3006 RMK A01 T02770204  RH  065%=      5-min Rain = 0
KWA1 171448Z 19014KT 28/20 A3006 RMK A01 T02770204  RH  064%=      5-min Rain = 0
KWA1 171449Z 19013KT 28/20 A3006 RMK A01 T02780204  RH  064%=      5-min Rain = 0
KWA1 171450Z 18013KT 28/21 A3006 RMK A01 T02770205  RH  065%=      5-min Rain = 0
KWA1 171451Z 18012KT 28/20 A3006 RMK A01 T02770204  RH  064%=      5-min Rain = 0
KWA1 171452Z 19011KT 28/21 A3006 RMK A01 T02790206  RH  065%=      5-min Rain = 0
KWA1 171453Z 17014KT 28/21 A3006 RMK A01 T02800206  RH  064%=      5-min Rain = 0
KWA1 171454Z 17012KT 28/20 A3006 RMK A01 T02810204  RH  063%=      5-min Rain = 0
KWA1 171455Z 17014KT 28/20 A3006 RMK A01 T02800204  RH  063%=      5-min Rain = 0
KWA1 171456Z 17013KT 28/20 A3006 RMK A01 T02800204  RH  063%=      5-min Rain = 0
KWA1 171457Z 18014KT 28/21 A3006 RMK A01 T02810205  RH  063%=      5-min Rain = 0
KWA1 171458Z 18012KT 28/21 A3006 RMK A01 T02820205  RH  063%=      5-min Rain = 0
KWA1 171459Z 19011KT 28/21 A3006 RMK A01 T02840207  RH  063%=      5-min Rain = 0
KWA1 171500Z 17013G18KT 29/21 A3006 RMK A01 T02860206  RH  062%=      5-min Rain = 0
KWA1 171501Z 18014KT 29/21 A3006 RMK A01 T02850205  RH  062%=      5-min Rain = 0
KWA1 171502Z 18015G20KT 29/21 A3006 RMK A01 T02850205  RH  062%=      5-min Rain = 0
KWA1 171503Z 17016KT 29/20 A3006 RMK A01 T02850204  RH  061%=      5-min Rain = 0
KWA1 171504Z 18014KT 28/20 A3006 RMK A01 T02840203  RH  061%=      5-min Rain = 0
KWA1 171505Z 19012KT 28/20 A3006 RMK A01 T02830204  RH  062%=      5-min Rain = 0
KWA1 171506Z 17014KT 28/20 A3006 RMK A01 T02830204  RH  062%=      5-min Rain = 0
KWA1 171507Z 17013KT 28/20 A3006 RMK A01 T02830203  RH  062%=      5-min Rain = 0
KWA1 171508Z 18014KT 28/20 A3006 RMK A01 T02840203  RH  062%=      5-min Rain = 0
KWA1 171509Z 19014KT 28/20 A3006 RMK A01 T02840204  RH  062%=      5-min Rain = 0
KWA1 171510Z 19017KT 28/20 A3006 RMK A01 T02840203  RH  062%=      5-min Rain = 0
KWA1 171511Z 19013KT 28/20 A3006 RMK A01 T02820202  RH  062%=      5-min Rain = 0
KWA1 171512Z 19014KT 28/20 A3006 RMK A01 T02830203  RH  062%=      5-min Rain = 0
KWA1 171513Z 20011KT 28/21 A3006 RMK A01 T02840205  RH  062%=      5-min Rain = 0
KWA1 171514Z 21012KT 29/21 A3006 RMK A01 T02850205  RH  062%=      5-min Rain = 0
KWA1 171515Z 20012G17KT 29/21 A3006 RMK A01 T02850206  RH  062%=      5-min Rain = 0
KWA1 171516Z 19015KT 29/20 A3006 RMK A01 T02860203  RH  061%=      5-min Rain = 0
KWA1 171517Z 18013KT 29/20 A3006 RMK A01 T02850204  RH  062%=      5-min Rain = 0
KWA1 171518Z 18011KT 28/20 A3006 RMK A01 T02840204  RH  062%=      5-min Rain = 0
KWA1 171519Z 19011KT 29/21 A3006 RMK A01 T02850208  RH  063%=      5-min Rain = 0
KWA1 171520Z 19010KT 29/21 A3006 RMK A01 T02880208  RH  062%=      5-min Rain = 0
KWA1 171521Z 20013KT 29/21 A3007 RMK A01 T02910209  RH  061%=      5-min Rain = 0
KWA1 171522Z 19014KT 29/21 A3007 RMK A01 T02910205  RH  060%=      5-min Rain = 0
KWA1 171523Z 20013KT 29/20 A3007 RMK A01 T02880204  RH  060%=      5-min Rain = 0
KWA1 171524Z 20015KT 29/20 A3007 RMK A01 T02860204  RH  061%=      5-min Rain = 0
KWA1 171525Z 20014KT 29/20 A3007 RMK A01 T02850203  RH  061%=      5-min Rain = 0
KWA1 171526Z 20010KT 29/21 A3007 RMK A01 T02850205  RH  062%=      5-min Rain = 0
KWA1 171527Z 20012KT 29/20 A3007 RMK A01 T02870204  RH  061%=      5-min Rain = 0
KWA1 171528Z 19012G18KT 29/21 A3007 RMK A01 T02870206  RH  061%=      5-min Rain = 0
KWA1 171529Z 19012KT 29/21 A3007 RMK A01 T02920210  RH  061%=      5-min Rain = 0
KWA1 171530Z 18013KT 29/21 A3007 RMK A01 T02940206  RH  059%=      5-min Rain = 0
KWA1 171531Z 18012KT 29/21 A3007 RMK A01 T02920205  RH  059%=      5-min Rain = 0
KWA1 171532Z 20012KT 29/21 A3007 RMK A01 T02920207  RH  060%=      5-min Rain = 0
KWA1 171533Z 21014KT 29/21 A3007 RMK A01 T02920206  RH  060%=      5-min Rain = 0
KWA1 171534Z 20010KT 29/20 A3007 RMK A01 T02890204  RH  060%=      5-min Rain = 0
KWA1 171535Z 19011KT 29/21 A3007 RMK A01 T02870205  RH  061%=      5-min Rain = 0
KWA1 171536Z 18010KT 29/20 A3007 RMK A01 T02870204  RH  061%=      5-min Rain = 0
KWA1 171537Z 18011KT 29/20 A3007 RMK A01 T02870204  RH  061%=      5-min Rain = 0
KWA1 171538Z 18011KT 29/21 A3007 RMK A01 T02890207  RH  061%=      5-min Rain = 0
KWA1 171539Z 18011KT 29/21 A3007 RMK A01 T02920206  RH  060%=      5-min Rain = 0
KWA1 171540Z 19012KT 29/21 A3007 RMK A01 T02930206  RH  060%=      5-min Rain = 0
KWA1 171541Z 19013G18KT 29/21 A3006 RMK A01 T02930206  RH  060%=      5-min Rain = 0
KWA1 171542Z 17015KT 29/21 A3007 RMK A01 T02930206  RH  060%=      5-min Rain = 0
KWA1 171543Z 18013KT 29/21 A3007 RMK A01 T02940206  RH  059%=      5-min Rain = 0
KWA1 171544Z 19012KT 30/21 A3007 RMK A01 T02950208  RH  059%=      5-min Rain = 0
KWA1 171545Z 18013KT 30/21 A3007 RMK A01 T02960205  RH  058%=      5-min Rain = 0
KWA1 171546Z 18012KT 30/21 A3007 RMK A01 T02950205  RH  059%=      5-min Rain = 0
KWA1 171547Z 19015KT 30/20 A3007 RMK A01 T02950204  RH  058%=      5-min Rain = 0
KWA1 171548Z 18011KT 29/21 A3007 RMK A01 T02940205  RH  059%=      5-min Rain = 0
KWA1 171549Z 17012KT 30/21 A3007 RMK A01 T02950205  RH  059%=      5-min Rain = 0
KWA1 171550Z 18012KT 30/21 A3007 RMK A01 T02970206  RH  058%=      5-min Rain = 0
KWA1 171551Z 17016KT 30/21 A3007 RMK A01 T02990206  RH  057%=      5-min Rain = 0
KWA1 171552Z 18014KT 30/20 A3007 RMK A01 T02980204  RH  057%=      5-min Rain = 0
KWA1 171553Z 18013KT 30/21 A3007 RMK A01 T02970205  RH  058%=      5-min Rain = 0
KWA1 171554Z 19014KT 30/20 A3007 RMK A01 T02950203  RH  058%=      5-min Rain = 0
KWA1 171555Z 19015KT 29/20 A3007 RMK A01 T02930202  RH  058%=      5-min Rain = 0
KWA1 171556Z 19013KT 29/20 A3007 RMK A01 T02940203  RH  058%=      5-min Rain = 0
KWA1 171557Z 18015KT 30/20 A3007 RMK A01 T02960203  RH  057%=      5-min Rain = 0
KWA1 171558Z 20015KT 30/20 A3007 RMK A01 T02970203  RH  057%=      5-min Rain = 0
KWA1 171559Z 20014KT 30/20 A3007 RMK A01 T02970203  RH  057%=      5-min Rain = 0
KWA1 171600Z 19014KT 30/20 A3007 RMK A01 T02960203  RH  057%=      5-min Rain = 0
KWA1 171601Z 19012KT 30/20 A3007 RMK A01 T02960202  RH  057%=      5-min Rain = 0
KWA1 171602Z 20012KT 30/21 A3007 RMK A01 T02960205  RH  058%=      5-min Rain = 0
KWA1 171603Z 20016KT 30/20 A3007 RMK A01 T02970202  RH  057%=      5-min Rain = 0
KWA1 171604Z 19013KT 30/20 A3007 RMK A01 T02960203  RH  057%=      5-min Rain = 0
KWA1 171605Z 19013KT 30/20 A3007 RMK A01 T02970203  RH  057%=      5-min Rain = 0
KWA1 171606Z 19013KT 30/20 A3007 RMK A01 T02970202  RH  057%=      5-min Rain = 0
KWA1 171607Z 20013KT 30/20 A3007 RMK A01 T02960202  RH  057%=      5-min Rain = 0
KWA1 171608Z 18013G18KT 30/20 A3007 RMK A01 T02950204  RH  058%=      5-min Rain = 0
KWA1 171609Z 19014KT 30/20 A3007 RMK A01 T02970202  RH  056%=      5-min Rain = 0
KWA1 171610Z 19010KT 30/20 A3007 RMK A01 T02980203  RH  057%=      5-min Rain = 0
KWA1 171611Z 20014KT 30/20 A3007 RMK A01 T02980202  RH  056%=      5-min Rain = 0
KWA1 171612Z 20013KT 30/20 A3007 RMK A01 T02980202  RH  056%=      5-min Rain = 0
KWA1 171613Z 20015KT 30/20 A3007 RMK A01 T02980202  RH  057%=      5-min Rain = 0
KWA1 171614Z 19014KT 30/20 A3007 RMK A01 T02990203  RH  056%=      5-min Rain = 0
KWA1 171615Z 19014KT 30/20 A3007 RMK A01 T03010203  RH  056%=      5-min Rain = 0
KWA1 171616Z 20013KT 30/20 A3007 RMK A01 T03010203  RH  056%=      5-min Rain = 0
KWA1 171617Z 19014KT 30/20 A3007 RMK A01 T03000203  RH  056%=      5-min Rain = 0
KWA1 171618Z 19012KT 30/20 A3007 RMK A01 T02990201  RH  056%=      5-min Rain = 0
KWA1 171619Z 20014KT 30/20 A3007 RMK A01 T02990204  RH  057%=      5-min Rain = 0
KWA1 171620Z 19009KT 30/20 A3007 RMK A01 T02990203  RH  056%=      5-min Rain = 0
KWA1 171621Z 18013KT 30/21 A3007 RMK A01 T03010206  RH  057%=      5-min Rain = 0
KWA1 171622Z 19014KT 31/21 A3007 RMK A01 T03050205  RH  055%=      5-min Rain = 0
KWA1 171623Z 20015KT 30/20 A3007 RMK A01 T03040204  RH  055%=      5-min Rain = 0
KWA1 171624Z 19014KT 30/21 A3007 RMK A01 T03030205  RH  056%=      5-min Rain = 0
KWA1 171625Z 19012KT 30/20 A3007 RMK A01 T03030204  RH  055%=      5-min Rain = 0
KWA1 171626Z 20012KT 30/21 A3007 RMK A01 T03020206  RH  056%=      5-min Rain = 0
KWA1 171627Z 20013KT 30/20 A3007 RMK A01 T03030204  RH  056%=      5-min Rain = 0
KWA1 171628Z 19010KT 30/21 A3007 RMK A01 T03020205  RH  056%=      5-min Rain = 0
KWA1 171629Z 18014KT 30/21 A3007 RMK A01 T03040205  RH  056%=      5-min Rain = 0
KWA1 171630Z 18013KT 31/20 A3007 RMK A01 T03050204  RH  055%=      5-min Rain = 0
KWA1 171631Z 17014KT 31/21 A3007 RMK A01 T03070206  RH  055%=      5-min Rain = 0
KWA1 171632Z 17015KT 31/20 A3007 RMK A01 T03080204  RH  054%=      5-min Rain = 0
KWA1 171633Z 19013KT 31/21 A3007 RMK A01 T03070205  RH  055%=      5-min Rain = 0
KWA1 171634Z 19013KT 31/20 A3007 RMK A01 T03080203  RH  054%=      5-min Rain = 0
KWA1 171635Z 18013KT 31/20 A3007 RMK A01 T03060203  RH  054%=      5-min Rain = 0
KWA1 171636Z 18012KT 31/20 A3007 RMK A01 T03060203  RH  054%=      5-min Rain = 0
KWA1 171637Z 18013KT 31/21 A3007 RMK A01 T03080205  RH  054%=      5-min Rain = 0
KWA1 171638Z 18015KT 31/20 A3007 RMK A01 T03100203  RH  053%=      5-min Rain = 0
KWA1 171639Z 18013KT 31/20 A3007 RMK A01 T03080202  RH  053%=      5-min Rain = 0
KWA1 171640Z 19011KT 31/20 A3007 RMK A01 T03080203  RH  053%=      5-min Rain = 0
KWA1 171641Z 18011KT 31/20 A3007 RMK A01 T03070203  RH  054%=      5-min Rain = 0
KWA1 171642Z 18014KT 31/20 A3007 RMK A01 T03080203  RH  054%=      5-min Rain = 0
KWA1 171643Z 18012KT 31/20 A3007 RMK A01 T03090203  RH  053%=      5-min Rain = 0
KWA1 171644Z 18014KT 31/20 A3007 RMK A01 T03100203  RH  053%=      5-min Rain = 0
KWA1 171645Z 18013KT 31/20 A3007 RMK A01 T03110203  RH  053%=      5-min Rain = 0
KWA1 171646Z 17014KT 31/21 A3007 RMK A01 T03130205  RH  053%=      5-min Rain = 0
KWA1 171647Z 17014KT 31/21 A3007 RMK A01 T03140205  RH  052%=      5-min Rain = 0
KWA1 171648Z 17014KT 32/20 A3007 RMK A01 T03150203  RH  052%=      5-min Rain = 0
KWA1 171649Z 18012G19KT 31/20 A3007 RMK A01 T03120204  RH  052%=      5-min Rain = 0
KWA1 171650Z 19016G22KT 31/21 A3007 RMK A01 T03120206  RH  053%=      5-min Rain = 0
KWA1 171651Z 20012KT 31/21 A3007 RMK A01 T03140205  RH  052%=      5-min Rain = 0
KWA1 171652Z 20008KT 31/21 A3007 RMK A01 T03120205  RH  053%=      5-min Rain = 0
KWA1 171653Z 17008KT 31/21 A3007 RMK A01 T03110206  RH  054%=      5-min Rain = 0
KWA1 171654Z 17013G18KT 31/21 A3007 RMK A01 T03140205  RH  052%=      5-min Rain = 0
KWA1 171655Z 16016KT 32/20 A3007 RMK A01 T03150204  RH  052%=      5-min Rain = 0
KWA1 171656Z 17013KT 32/20 A3007 RMK A01 T03150204  RH  052%=      5-min Rain = 0
KWA1 171657Z 18011KT 32/21 A3007 RMK A01 T03150205  RH  052%=      5-min Rain = 0
KWA1 171658Z 19010KT 32/21 A3007 RMK A01 T03160206  RH  052%=      5-min Rain = 0
KWA1 171659Z 20010KT 32/21 A3007 RMK A01 T03170208  RH  053%=      5-min Rain = 0
KWA1 171700Z 20012KT 32/21 A3007 RMK A01 T03190209  RH  052%=      5-min Rain = 0
KWA1 171701Z 20011KT 32/21 A3007 RMK A01 T03200207  RH  051%=      5-min Rain = 0
KWA1 171702Z 18010KT 32/21 A3007 RMK A01 T03190208  RH  052%=      5-min Rain = 0
KWA1 171703Z 17011KT 32/21 A3007 RMK A01 T03180206  RH  051%=      5-min Rain = 0
KWA1 171704Z 17011KT 32/21 A3007 RMK A01 T03190208  RH  052%=      5-min Rain = 0
KWA1 171705Z 19010KT 32/21 A3007 RMK A01 T03200207  RH  051%=      5-min Rain = 0
KWA1 171706Z 20012KT 32/21 A3007 RMK A01 T03200206  RH  051%=      5-min Rain = 0
KWA1 171707Z 19011KT 32/20 A3007 RMK A01 T03170204  RH  051%=      5-min Rain = 0
KWA1 171708Z 20014KT 32/21 A3007 RMK A01 T03170206  RH  052%=      5-min Rain = 0
KWA1 171709Z 21012KT 32/21 A3007 RMK A01 T03170205  RH  051%=      5-min Rain = 0
KWA1 171710Z 21009KT 32/21 A3007 RMK A01 T03180206  RH  052%=      5-min Rain = 0
KWA1 171711Z 19009KT 32/21 A3007 RMK A01 T03180205  RH  051%=      5-min Rain = 0
KWA1 171712Z 20013KT 32/21 A3007 RMK A01 T03180206  RH  051%=      5-min Rain = 0
KWA1 171713Z 19014KT 32/21 A3007 RMK A01 T03160205  RH  052%=      5-min Rain = 0
KWA1 171714Z 18013KT 32/20 A3007 RMK A01 T03170204  RH  051%=      5-min Rain = 0
KWA1 171715Z 18009KT 32/20 A3007 RMK A01 T03170204  RH  051%=      5-min Rain = 0
KWA1 171716Z 17013KT 32/21 A3006 RMK A01 T03180207  RH  052%=      5-min Rain = 0
KWA1 171717Z 18013KT 32/21 A3007 RMK A01 T03210205  RH  051%=      5-min Rain = 0
KWA1 171718Z 17013KT 32/21 A3007 RMK A01 T03200205  RH  051%=      5-min Rain = 0
KWA1 171719Z 17010G16KT 32/21 A3007 RMK A01 T03190205  RH  051%=      5-min Rain = 0
KWA1 171720Z 17010KT 32/21 A3007 RMK A01 T03180205  RH  051%=      5-min Rain = 0
KWA1 171721Z 18013KT 32/20 A3007 RMK A01 T03180204  RH  051%=      5-min Rain = 0
KWA1 171722Z 19013KT 32/21 A3007 RMK A01 T03190205  RH  051%=      5-min Rain = 0
KWA1 171723Z 19012KT 32/21 A3007 RMK A01 T03180205  RH  051%=      5-min Rain = 0
KWA1 171724Z 18011KT 32/21 A3007 RMK A01 T03190205  RH  051%=      5-min Rain = 0
KWA1 171725Z 19011KT 32/20 A3007 RMK A01 T03180203  RH  051%=      5-min Rain = 0
KWA1 171726Z 19014KT 32/20 A3007 RMK A01 T03160204  RH  051%=      5-min Rain = 0
KWA1 171727Z 19013KT 32/20 A3007 RMK A01 T03160203  RH  051%=      5-min Rain = 0
KWA1 171728Z 21015KT 32/20 A3007 RMK A01 T03180204  RH  051%=      5-min Rain = 0
KWA1 171729Z 22014KT 32/20 A3007 RMK A01 T03180204  RH  051%=      5-min Rain = 0
KWA1 171730Z 21013KT 32/21 A3007 RMK A01 T03180206  RH  051%=      5-min Rain = 0
KWA1 171731Z 21013KT 32/20 A3007 RMK A01 T03170200  RH  050%=      5-min Rain = 0
KWA1 171732Z 21011KT 31/20 A3007 RMK A01 T03130201  RH  051%=      5-min Rain = 0
KWA1 171733Z 20013KT 31/20 A3007 RMK A01 T03140201  RH  051%=      5-min Rain = 0
KWA1 171734Z 20015KT 31/20 A3007 RMK A01 T03140201  RH  051%=      5-min Rain = 0
KWA1 171735Z 20013KT 31/20 A3007 RMK A01 T03140203  RH  052%=      5-min Rain = 0
KWA1 171736Z 20009KT 32/21 A3007 RMK A01 T03180206  RH  052%=      5-min Rain = 0
KWA1 171737Z 19008KT 32/21 A3007 RMK A01 T03210206  RH  051%=      5-min Rain = 0
KWA1 171738Z 20011G17KT 32/21 A3007 RMK A01 T03220208  RH  051%=      5-min Rain = 0
KWA1 171739Z 19017KT 33/21 A3007 RMK A01 T03250207  RH  050%=      5-min Rain = 0
KWA1 171740Z 18011G16KT 32/21 A3007 RMK A01 T03230206  RH  050%=      5-min Rain = 0
KWA1 171741Z 19010KT 32/21 A3007 RMK A01 T03220206  RH  050%=      5-min Rain = 0
KWA1 171742Z 20009KT 32/20 A3007 RMK A01 T03210203  RH  050%=      5-min Rain = 0
KWA1 171743Z 22009KT 32/20 A3007 RMK A01 T03170202  RH  050%=      5-min Rain = 0
KWA1 171744Z 19010KT 32/21 A3007 RMK A01 T03170207  RH  052%=      5-min Rain = 0
KWA1 171745Z 19011KT 32/21 A3007 RMK A01 T03220207  RH  051%=      5-min Rain = 0
KWA1 171746Z 18010KT 32/21 A3007 RMK A01 T03240207  RH  050%=      5-min Rain = 0
KWA1 171747Z 18010KT 33/21 A3007 RMK A01 T03270209  RH  050%=      5-min Rain = 0
KWA1 171748Z 19015KT 33/21 A3007 RMK A01 T03310209  RH  049%=      5-min Rain = 0
KWA1 171749Z 17013KT 33/21 A3007 RMK A01 T03290206  RH  049%=      5-min Rain = 0
KWA1 171750Z 17012KT 33/21 A3007 RMK A01 T03270206  RH  049%=      5-min Rain = 0
KWA1 171751Z 18010KT 33/20 A3007 RMK A01 T03260204  RH  049%=      5-min Rain = 0
KWA1 171752Z 17010KT 33/20 A3007 RMK A01 T03250204  RH  049%=      5-min Rain = 0
KWA1 171753Z 19010KT 32/20 A3006 RMK A01 T03230204  RH  049%=      5-min Rain = 0
KWA1 171754Z 16011G17KT 32/20 A3006 RMK A01 T03210204  RH  050%=      5-min Rain = 0
KWA1 171755Z 19012KT 32/21 A3006 RMK A01 T03230205  RH  050%=      5-min Rain = 0
KWA1 171756Z 19015KT 33/21 A3006 RMK A01 T03260207  RH  050%=      5-min Rain = 0
KWA1 171757Z 19017KT 33/21 A3006 RMK A01 T03280205  RH  049%=      5-min Rain = 0
KWA1 171758Z 19011KT 33/20 A3006 RMK A01 T03250204  RH  049%=      5-min Rain = 0
KWA1 171759Z 19009G14KT 32/20 A3006 RMK A01 T03230203  RH  049%=      5-min Rain = 0
KWA1 171800Z 20008KT 32/20 A3006 RMK A01 T03180201  RH  050%=      5-min Rain = 0
KWA1 171801Z 21007KT 32/20 A3006 RMK A01 T03150200  RH  050%=      5-min Rain = 0
KWA1 171802Z 20007KT 31/20 A3006 RMK A01 T03140202  RH  052%=      5-min Rain = 0
KWA1 171803Z 19010KT 32/20 A3006 RMK A01 T03160203  RH  051%=      5-min Rain = 0
KWA1 171804Z 17014KT 32/20 A3006 RMK A01 T03180203  RH  050%=      5-min Rain = 0
KWA1 171805Z 17014KT 33/21 A3006 RMK A01 T03250207  RH  050%=      5-min Rain = 0
KWA1 171806Z 15013KT 33/21 A3006 RMK A01 T03300207  RH  048%=      5-min Rain = 0
KWA1 171807Z 16011KT 33/21 A3006 RMK A01 T03290207  RH  049%=      5-min Rain = 0
KWA1 171808Z 17008KT 33/21 A3006 RMK A01 T03290206  RH  048%=      5-min Rain = 0
KWA1 171809Z 16008KT 33/21 A3006 RMK A01 T03280209  RH  050%=      5-min Rain = 0
KWA1 171810Z 17014KT 33/20 A3006 RMK A01 T03300204  RH  048%=      5-min Rain = 0
KWA1 171811Z 18013G18KT 33/20 A3006 RMK A01 T03290202  RH  047%=      5-min Rain = 0
KWA1 171812Z 19009KT 33/20 A3006 RMK A01 T03270200  RH  047%=      5-min Rain = 0
KWA1 171813Z 17013KT 32/20 A3006 RMK A01 T03230202  RH  049%=      5-min Rain = 0
KWA1 171814Z 17015KT 33/20 A3006 RMK A01 T03250204  RH  049%=      5-min Rain = 0
KWA1 171815Z 18016KT 33/21 A3006 RMK A01 T03280205  RH  049%=      5-min Rain = 0
KWA1 171816Z 18013KT 33/21 A3006 RMK A01 T03290205  RH  048%=      5-min Rain = 0
KWA1 171817Z 17011KT 33/21 A3006 RMK A01 T03310206  RH  048%=      5-min Rain = 0
KWA1 171818Z 17013KT 33/21 A3006 RMK A01 T03310207  RH  048%=      5-min Rain = 0
KWA1 171819Z 16009KT 33/21 A3006 RMK A01 T03310205  RH  048%=      5-min Rain = 0
KWA1 171820Z 20008KT 33/21 A3006 RMK A01 T03290206  RH  048%=      5-min Rain = 0
KWA1 171821Z 18006KT 33/21 A3006 RMK A01 T03270205  RH  049%=      5-min Rain = 0
KWA1 171822Z 16011KT 33/20 A3006 RMK A01 T03260204  RH  049%=      5-min Rain = 0
KWA1 171823Z 17010KT 33/21 A3006 RMK A01 T03280206  RH  049%=      5-min Rain = 0
KWA1 171824Z 17009KT 33/20 A3005 RMK A01 T03290204  RH  048%=      5-min Rain = 0
KWA1 171825Z 16011KT 33/20 A3005 RMK A01 T03260203  RH  048%=      5-min Rain = 0
KWA1 171826Z 17011KT 33/21 A3005 RMK A01 T03250205  RH  049%=      5-min Rain = 0
KWA1 171827Z 19012KT 33/21 A3005 RMK A01 T03320210  RH  049%=      5-min Rain = 0
KWA1 171828Z 19012KT 34/21 A3005 RMK A01 T03370207  RH  047%=      5-min Rain = 0
KWA1 171829Z 19010KT 34/21 A3005 RMK A01 T03350205  RH  046%=      5-min Rain = 0
KWA1 171830Z 18009G14KT 33/20 A3005 RMK A01 T03300204  RH  048%=      5-min Rain = 0
KWA1 171831Z 19013KT 33/20 A3005 RMK A01 T03290204  RH  048%=      5-min Rain = 0
KWA1 171832Z 20011KT 33/20 A3005 RMK A01 T03320203  RH  047%=      5-min Rain = 0
KWA1 171833Z 20011KT 33/20 A3005 RMK A01 T03310203  RH  047%=      5-min Rain = 0
KWA1 171834Z 18009KT 33/20 A3005 RMK A01 T03290203  RH  047%=      5-min Rain = 0
KWA1 171835Z 17012G17KT 33/21 A3005 RMK A01 T03310205  RH  048%=      5-min Rain = 0
KWA1 171836Z 17013KT 33/20 A3005 RMK A01 T03330201  RH  046%=      5-min Rain = 0
KWA1 171837Z 18007KT 33/20 A3005 RMK A01 T03310201  RH  046%=      5-min Rain = 0
KWA1 171838Z 18008G13KT 33/20 A3004 RMK A01 T03270201  RH  047%=      5-min Rain = 0
KWA1 171839Z 15014KT 33/21 A3004 RMK A01 T03290205  RH  048%=      5-min Rain = 0
KWA1 171840Z 17015KT 33/21 A3004 RMK A01 T03340206  RH  047%=      5-min Rain = 0
KWA1 171841Z 16014KT 34/21 A3004 RMK A01 T03370207  RH  047%=      5-min Rain = 0
KWA1 171842Z 17013KT 34/21 A3004 RMK A01 T03400208  RH  046%=      5-min Rain = 0
KWA1 171843Z 18015KT 34/21 A3004 RMK A01 T03410205  RH  045%=      5-min Rain = 0
KWA1 171844Z 17015KT 34/20 A3004 RMK A01 T03400202  RH  044%=      5-min Rain = 0
KWA1 171845Z 16013KT 34/20 A3004 RMK A01 T03360201  RH  045%=      5-min Rain = 0
KWA1 171846Z 15012KT 33/20 A3004 RMK A01 T03330199  RH  045%=      5-min Rain = 0
KWA1 171847Z 15012KT 33/20 A3004 RMK A01 T03330203  RH  047%=      5-min Rain = 0
KWA1 171848Z 16012KT 34/21 A3004 RMK A01 T03380206  RH  046%=      5-min Rain = 0
KWA1 171849Z 17014KT 34/20 A3004 RMK A01 T03410203  RH  045%=      5-min Rain = 0
KWA1 171850Z 17013KT 34/20 A3004 RMK A01 T03410202  RH  044%=      5-min Rain = 0
KWA1 171851Z 17012G17KT 34/20 A3004 RMK A01 T03390202  RH  045%=      5-min Rain = 0
KWA1 171852Z 17013KT 34/20 A3004 RMK A01 T03390204  RH  045%=      5-min Rain = 0
KWA1 171853Z 19009KT 34/21 A3004 RMK A01 T03420207  RH  045%=      5-min Rain = 0
KWA1 171854Z 20012KT 34/20 A3004 RMK A01 T03430202  RH  044%=      5-min Rain = 0
KWA1 171855Z 21010KT 34/20 A3004 RMK A01 T03350202  RH  046%=      5-min Rain = 0
KWA1 171856Z 18011KT 33/20 A3004 RMK A01 T03320204  RH  047%=      5-min Rain = 0
KWA1 171857Z 17013G18KT 33/21 A3004 RMK A01 T03340205  RH  047%=      5-min Rain = 0
KWA1 171858Z 18012KT 34/20 A3004 RMK A01 T03380204  RH  045%=      5-min Rain = 0
KWA1 171859Z 17012KT 34/21 A3004 RMK A01 T03420208  RH  046%=      5-min Rain = 0
KWA1 171900Z 16009G14KT 34/20 A3004 RMK A01 T03440203  RH  044%=      5-min Rain = 0
KWA1 171901Z 14009KT 34/20 A3004 RMK A01 T03390204  RH  045%=      5-min Rain = 0
KWA1 171902Z 15011KT 34/20 A3004 RMK A01 T03390202  RH  045%=      5-min Rain = 0
KWA1 171903Z 14015KT 34/20 A3004 RMK A01 T03390204  RH  045%=      5-min Rain = 0
KWA1 171904Z 14013KT 34/20 A3004 RMK A01 T03370203  RH  046%=      5-min Rain = 0
KWA1 171905Z 14012KT 33/20 A3004 RMK A01 T03330199  RH  045%=      5-min Rain = 0
KWA1 171906Z 15011KT 33/20 A3003 RMK A01 T03320198  RH  045%=      5-min Rain = 0
KWA1 171907Z 16012G19KT 33/20 A3003 RMK A01 T03310200  RH  046%=      5-min Rain = 0
KWA1 171908Z 17016KT 33/20 A3003 RMK A01 T03340201  RH  046%=      5-min Rain = 0
KWA1 171909Z 17014KT 34/21 A3003 RMK A01 T03400207  RH  046%=      5-min Rain = 0
KWA1 171910Z 17015KT 34/20 A3003 RMK A01 T03440203  RH  044%=      5-min Rain = 0
KWA1 171911Z 18013KT 34/20 A3003 RMK A01 T03420202  RH  044%=      5-min Rain = 0
KWA1 171912Z 18009KT 34/20 A3003 RMK A01 T03400201  RH  044%=      5-min Rain = 0
KWA1 171913Z 18013KT 34/20 A3003 RMK A01 T03390202  RH  045%=      5-min Rain = 0
KWA1 171914Z 17012KT 34/20 A3003 RMK A01 T03390203  RH  045%=      5-min Rain = 0
KWA1 171915Z 17008KT 34/20 A3003 RMK A01 T03360199  RH  045%=      5-min Rain = 0
KWA1 171916Z 18010KT 33/20 A3003 RMK A01 T03330199  RH  045%=      5-min Rain = 0
KWA1 171917Z 18013KT 33/20 A3003 RMK A01 T03330201  RH  046%=      5-min Rain = 0
KWA1 171918Z 16013KT 34/20 A3003 RMK A01 T03360202  RH  045%=      5-min Rain = 0
KWA1 171919Z 17013KT 34/20 A3003 RMK A01 T03390204  RH  045%=      5-min Rain = 0
KWA1 171920Z 17016G21KT 34/21 A3003 RMK A01 T03420207  RH  045%=      5-min Rain = 0
KWA1 171921Z 17018KT 35/21 A3003 RMK A01 T03450206  RH  044%=      5-min Rain = 0
KWA1 171922Z 17014G19KT 34/20 A3003 RMK A01 T03420204  RH  044%=      5-min Rain = 0
KWA1 171923Z 18011KT 34/21 A3003 RMK A01 T03400205  RH  045%=      5-min Rain = 0
KWA1 171924Z 16009KT 34/20 A3003 RMK A01 T03380204  RH  046%=      5-min Rain = 0
KWA1 171925Z 15009KT 34/20 A3003 RMK A01 T03370204  RH  046%=      5-min Rain = 0
KWA1 171926Z 18009KT 34/21 A3003 RMK A01 T03370206  RH  046%=      5-min Rain = 0
KWA1 171927Z 16011KT 34/21 A3003 RMK A01 T03390207  RH  046%=      5-min Rain = 0
KWA1 171928Z 18012KT 34/20 A3002 RMK A01 T03410203  RH  044%=      5-min Rain = 0
KWA1 171929Z 17011KT 34/20 A3002 RMK A01 T03410203  RH  044%=      5-min Rain = 0
KWA1 171930Z 15015KT 34/20 A3002 RMK A01 T03440202  RH  043%=      5-min Rain = 0
KWA1 171931Z 15014KT 34/20 A3002 RMK A01 T03430199  RH  043%=      5-min Rain = 0
KWA1 171932Z 15012KT 34/20 A3002 RMK A01 T03430203  RH  044%=      5-min Rain = 0
KWA1 171933Z 16012KT 35/20 A3002 RMK A01 T03450203  RH  043%=      5-min Rain = 0
KWA1 171934Z 16012G17KT 34/20 A3002 RMK A01 T03420200  RH  043%=      5-min Rain = 0
KWA1 171935Z 16016KT 34/20 A3002 RMK A01 T03400201  RH  044%=      5-min Rain = 0
KWA1 171936Z 18017KT 34/20 A3002 RMK A01 T03420201  RH  044%=      5-min Rain = 0
KWA1 171937Z 17015KT 34/20 A3002 RMK A01 T03420200  RH  044%=      5-min Rain = 0
KWA1 171938Z 16013KT 34/20 A3002 RMK A01 T03390201  RH  045%=      5-min Rain = 0
KWA1 171939Z 16016KT 34/20 A3002 RMK A01 T03380202  RH  045%=      5-min Rain = 0
KWA1 171940Z 15015KT 34/20 A3002 RMK A01 T03420199  RH  043%=      5-min Rain = 0
KWA1 171941Z 15016G22KT 34/20 A3002 RMK A01 T03420197  RH  043%=      5-min Rain = 0
KWA1 171942Z 17016KT 35/20 A3002 RMK A01 T03470202  RH  043%=      5-min Rain = 0
KWA1 171943Z 16015KT 35/20 A3002 RMK A01 T03500199  RH  041%=      5-min Rain = 0
KWA1 171944Z 16018KT 35/20 A3002 RMK A01 T03470195  RH  041%=      5-min Rain = 0
KWA1 171945Z 16017KT 35/20 A3002 RMK A01 T03450195  RH  041%=      5-min Rain = 0
KWA1 171946Z 16013KT 34/19 A3002 RMK A01 T03430194  RH  042%=      5-min Rain = 0
KWA1 171947Z 18014KT 34/20 A3002 RMK A01 T03400198  RH  043%=      5-min Rain = 0
KWA1 171948Z 18015KT 34/20 A3002 RMK A01 T03440204  RH  044%=      5-min Rain = 0
KWA1 171949Z 19013G18KT 35/20 A3002 RMK A01 T03470203  RH  043%=      5-min Rain = 0
KWA1 171950Z 17014KT 34/20 A3002 RMK A01 T03430201  RH  044%=      5-min Rain = 0
KWA1 171951Z 16010KT 34/20 A3002 RMK A01 T03400200  RH  044%=      5-min Rain = 0
KWA1 171952Z 17008KT 34/20 A3002 RMK A01 T03380203  RH  045%=      5-min Rain = 0
KWA1 171953Z 16014KT 34/20 A3002 RMK A01 T03390202  RH  045%=      5-min Rain = 0
KWA1 171954Z 17015KT 34/20 A3002 RMK A01 T03410204  RH  045%=      5-min Rain = 0
KWA1 171955Z 16012KT 34/20 A3002 RMK A01 T03440202  RH  043%=      5-min Rain = 0
KWA1 171956Z 16014KT 34/20 A3002 RMK A01 T03420201  RH  044%=      5-min Rain = 0
KWA1 171957Z 18013KT 34/20 A3002 RMK A01 T03410201  RH  044%=      5-min Rain = 0
KWA1 171958Z 19010KT 34/20 A3002 RMK A01 T03420202  RH  044%=      5-min Rain = 0
KWA1 171959Z 17011KT 34/20 A3002 RMK A01 T03440204  RH  044%=      5-min Rain = 0
KWA1 172000Z 16015KT 35/20 A3002 RMK A01 T03460204  RH  044%=      5-min Rain = 0
KWA1 172001Z 17016G21KT 35/20 A3002 RMK A01 T03470203  RH  043%=      5-min Rain = 0
KWA1 172002Z 18014KT 35/20 A3002 RMK A01 T03460199  RH  042%=      5-min Rain = 0
KWA1 172003Z 20012KT 34/20 A3001 RMK A01 T03440199  RH  043%=      5-min Rain = 0
KWA1 172004Z 16008KT 34/20 A3002 RMK A01 T03420200  RH  043%=      5-min Rain = 0
KWA1 172005Z 15012KT 34/20 A3001 RMK A01 T03430203  RH  044%=      5-min Rain = 0
KWA1 172006Z 15012KT 34/20 A3001 RMK A01 T03430201  RH  043%=      5-min Rain = 0
KWA1 172007Z 17012G17KT 34/20 A3001 RMK A01 T03420203  RH  044%=      5-min Rain = 0
KWA1 172008Z 15017G25KT 34/20 A3001 RMK A01 T03440204  RH  044%=      5-min Rain = 0
KWA1 172009Z 13014KT 34/20 A3001 RMK A01 T03430201  RH  043%=      5-min Rain = 0
KWA1 172010Z 14014KT 34/20 A3001 RMK A01 T03410200  RH  044%=      5-min Rain = 0
KWA1 172011Z 14018KT 34/20 A3001 RMK A01 T03410200  RH  044%=      5-min Rain = 0
KWA1 172012Z 15016KT 34/20 A3001 RMK A01 T03420199  RH  043%=      5-min Rain = 0
KWA1 172013Z 16017KT 35/20 A3001 RMK A01 T03450202  RH  043%=      5-min Rain = 0
KWA1 172014Z 16014KT 35/20 A3001 RMK A01 T03470202  RH  043%=      5-min Rain = 0
KWA1 172015Z 17012G17KT 35/20 A3001 RMK A01 T03460203  RH  043%=      5-min Rain = 0
KWA1 172016Z 16012G19KT 35/20 A3001 RMK A01 T03460204  RH  043%=      5-min Rain = 0
KWA1 172017Z 16016KT 35/20 A3001 RMK A01 T03470204  RH  043%=      5-min Rain = 0
KWA1 172018Z 15013KT 35/20 A3001 RMK A01 T03490203  RH  043%=      5-min Rain = 0
KWA1 172019Z 14011G18KT 35/20 A30 RMK A01 T03450202  RH  043%=      5-min Rain = 0
KWA1 172020Z 14016KT 35/20 A30 RMK A01 T03450202  RH  043%=      5-min Rain = 0
KWA1 172021Z 14013KT 35/20 A30 RMK A01 T03460202  RH  043%=      5-min Rain = 0
KWA1 172022Z 15014KT 35/20 A30 RMK A01 T03470200  RH  042%=      5-min Rain = 0
KWA1 172023Z 18010KT 35/20 A3001 RMK A01 T03500204  RH  043%=      5-min Rain = 0
KWA1 172024Z 17009KT 35/20 A30 RMK A01 T03530204  RH  042%=      5-min Rain = 0
KWA1 172025Z 16009KT 35/20 A30 RMK A01 T03540203  RH  041%=      5-min Rain = 0
KWA1 172026Z 15010KT 35/20 A30 RMK A01 T03530202  RH  041%=      5-min Rain = 0
KWA1 172027Z 15013KT 35/20 A30 RMK A01 T03500201  RH  042%=      5-min Rain = 0
KWA1 172028Z 16013KT 35/20 A30 RMK A01 T03500201  RH  042%=      5-min Rain = 0
KWA1 172029Z 16012KT 35/20 A30 RMK A01 T03490200  RH  042%=      5-min Rain = 0
KWA1 172030Z 17012KT 35/20 A30 RMK A01 T03490204  RH  043%=      5-min Rain = 0
KWA1 172031Z 16017G23KT 35/20 A30 RMK A01 T03520202  RH  042%=      5-min Rain = 0
KWA1 172032Z 16010KT 35/20 A30 RMK A01 T03520200  RH  041%=      5-min Rain = 0
KWA1 172033Z 15012G17KT 35/20 A30 RMK A01 T03470198  RH  042%=      5-min Rain = 0
KWA1 172034Z 16018KT 35/20 A30 RMK A01 T03460198  RH  042%=      5-min Rain = 0
KWA1 172035Z 16016KT 35/20 A30 RMK A01 T03470196  RH  041%=      5-min Rain = 0
KWA1 172036Z 15014G19KT 35/20 A30 RMK A01 T03470197  RH  042%=      5-min Rain = 0
KWA1 172037Z 16015KT 35/20 A30 RMK A01 T03500197  RH  041%=      5-min Rain = 0
KWA1 172038Z 17012KT 35/20 A30 RMK A01 T03510199  RH  041%=      5-min Rain = 0
KWA1 172039Z 16012KT 35/20 A30 RMK A01 T03530197  RH  040%=      5-min Rain = 0
KWA1 172040Z 16017KT 35/20 A30 RMK A01 T03510198  RH  041%=      5-min Rain = 0
KWA1 172041Z 16018KT 35/20 A30 RMK A01 T03530198  RH  040%=      5-min Rain = 0
KWA1 172042Z 16014KT 35/20 A30 RMK A01 T03530197  RH  040%=      5-min Rain = 0
KWA1 172043Z 16013KT 35/20 A30 RMK A01 T03530197  RH  040%=      5-min Rain = 0
KWA1 172044Z 14012KT 35/20 A30 RMK A01 T03520196  RH  040%=      5-min Rain = 0
KWA1 172045Z 16012KT 35/20 A30 RMK A01 T03510198  RH  041%=      5-min Rain = 0
KWA1 172046Z 15010KT 35/20 A30 RMK A01 T03500196  RH  041%=      5-min Rain = 0
KWA1 172047Z 15011KT 35/20 A30 RMK A01 T03480196  RH  041%=      5-min Rain = 0
KWA1 172048Z 16016G23KT 35/19 A30 RMK A01 T03490194  RH  040%=      5-min Rain = 0
KWA1 172049Z 17018KT 35/19 A30 RMK A01 T03520194  RH  040%=      5-min Rain = 0
KWA1 172050Z 17016KT 35/19 A2999 RMK A01 T03530193  RH  039%=      5-min Rain = 0
KWA1 172051Z 17016KT 35/19 A2999 RMK A01 T03540192  RH  039%=      5-min Rain = 0
KWA1 172052Z 16014KT 35/19 A2999 RMK A01 T03530187  RH  038%=      5-min Rain = 0
KWA1 172053Z 16012KT 35/19 A2999 RMK A01 T03510188  RH  038%=      5-min Rain = 0
KWA1 172054Z 16012KT 35/20 A2999 RMK A01 T03520195  RH  040%=      5-min Rain = 0
KWA1 172055Z 18011KT 36/20 A2999 RMK A01 T03550199  RH  040%=      5-min Rain = 0
KWA1 172056Z 18014G19KT 36/20 A2999 RMK A01 T03610202  RH  039%=      5-min Rain = 0
KWA1 172057Z 17016KT 36/20 A2999 RMK A01 T03610197  RH  039%=      5-min Rain = 0
KWA1 172058Z 17013KT 36/20 A2999 RMK A01 T03570197  RH  039%=      5-min Rain = 0
KWA1 172059Z 17012KT 36/20 A2999 RMK A01 T03560197  RH  040%=      5-min Rain = 0
KWA1 172100Z 14011KT 36/20 A2999 RMK A01 T03550197  RH  040%=      5-min Rain = 0
KWA1 172101Z 15016G21KT 36/20 A2999 RMK A01 T03560197  RH  039%=      5-min Rain = 0
KWA1 172102Z 15014KT 36/19 A2999 RMK A01 T03560194  RH  039%=      5-min Rain = 0
KWA1 172103Z 16012G18KT 36/20 A2999 RMK A01 T03560195  RH  039%=      5-min Rain = 0
KWA1 172104Z 17018KT 36/20 A2999 RMK A01 T03570196  RH  039%=      5-min Rain = 0
KWA1 172105Z 17017KT 36/19 A2999 RMK A01 T03560190  RH  038%=      5-min Rain = 0
KWA1 172106Z 17011KT 35/19 A2999 RMK A01 T03510190  RH  039%=      5-min Rain = 0
KWA1 172107Z 18010KT 35/19 A2999 RMK A01 T03500191  RH  039%=      5-min Rain = 0
KWA1 172108Z 17010KT 35/19 A2998 RMK A01 T03490192  RH  040%=      5-min Rain = 0
KWA1 172109Z 16012KT 35/20 A2998 RMK A01 T03490195  RH  040%=      5-min Rain = 0
KWA1 172110Z 15016KT 35/20 A2998 RMK A01 T03500195  RH  040%=      5-min Rain = 0
KWA1 172111Z 18014KT 35/19 A2998 RMK A01 T03500192  RH  039%=      5-min Rain = 0
KWA1 172112Z 16011KT 35/19 A2998 RMK A01 T03510192  RH  039%=      5-min Rain = 0
KWA1 172113Z 15016G21KT 35/19 A2998 RMK A01 T03530193  RH  039%=      5-min Rain = 0
KWA1 172114Z 15017G23KT 36/19 A2998 RMK A01 T03560185  RH  037%=      5-min Rain = 0
KWA1 172115Z 16017KT 36/19 A2998 RMK A01 T03580188  RH  037%=      5-min Rain = 0
KWA1 172116Z 17014KT 36/19 A2998 RMK A01 T03600186  RH  036%=      5-min Rain = 0
KWA1 172117Z 17012KT 36/19 A2998 RMK A01 T03570190  RH  037%=      5-min Rain = 0
KWA1 172118Z 18012KT 36/19 A2998 RMK A01 T03580189  RH  037%=      5-min Rain = 0
KWA1 172119Z 18007KT 36/19 A2998 RMK A01 T03550186  RH  037%=      5-min Rain = 0
KWA1 172120Z 15012KT 35/19 A2998 RMK A01 T03500187  RH  038%=      5-min Rain = 0
KWA1 172121Z 16015KT 35/19 A2998 RMK A01 T03500191  RH  039%=      5-min Rain = 0
KWA1 172122Z 16018KT 35/19 A2998 RMK A01 T03520191  RH  039%=      5-min Rain = 0
KWA1 172123Z 17014KT 35/19 A2998 RMK A01 T03520190  RH  038%=      5-min Rain = 0
KWA1 172124Z 18017KT 35/19 A2998 RMK A01 T03520189  RH  038%=      5-min Rain = 0
KWA1 172125Z 18017KT 36/19 A2998 RMK A01 T03550188  RH  038%=      5-min Rain = 0
KWA1 172126Z 19014KT 36/19 A2998 RMK A01 T03560187  RH  037%=      5-min Rain = 0
KWA1 172127Z 17012KT 35/19 A2998 RMK A01 T03530189  RH  038%=      5-min Rain = 0
KWA1 172128Z 16015KT 35/19 A2998 RMK A01 T03540192  RH  039%=      5-min Rain = 0
KWA1 172129Z 17013KT 36/19 A2998 RMK A01 T03550192  RH  038%=      5-min Rain = 0
KWA1 172130Z 15018KT 35/19 A2998 RMK A01 T03540192  RH  039%=      5-min Rain = 0
KWA1 172131Z 14016KT 35/19 A2998 RMK A01 T03530192  RH  039%=      5-min Rain = 0
KWA1 172132Z 14017KT 35/19 A2998 RMK A01 T03520190  RH  039%=      5-min Rain = 0
KWA1 172133Z 14016KT 35/19 A2998 RMK A01 T03500189  RH  039%=      5-min Rain = 0
KWA1 172134Z 15019KT 35/19 A2998 RMK A01 T03480189  RH  039%=      5-min Rain = 0
KWA1 172135Z 15017G22KT 35/19 A2998 RMK A01 T03490189  RH  039%=      5-min Rain = 0
KWA1 172136Z 15014KT 35/19 A2998 RMK A01 T03500189  RH  039%=      5-min Rain = 0
KWA1 172137Z 14012G17KT 35/19 A2998 RMK A01 T03500188  RH  039%=      5-min Rain = 0
KWA1 172138Z 15016KT 35/19 A2998 RMK A01 T03490190  RH  039%=      5-min Rain = 0
KWA1 172139Z 14013KT 35/19 A2998 RMK A01 T03510192  RH  039%=      5-min Rain = 0
KWA1 172140Z 14017G22KT 36/19 A2998 RMK A01 T03570194  RH  039%=      5-min Rain = 0
KWA1 172141Z 15016G21KT 36/19 A2998 RMK A01 T03560190  RH  038%=      5-min Rain = 0
KWA1 172142Z 16018KT 35/19 A2998 RMK A01 T03540192  RH  039%=      5-min Rain = 0
KWA1 172143Z 16016KT 36/19 A2998 RMK A01 T03550189  RH  038%=      5-min Rain = 0
KWA1 172144Z 15014KT 35/19 A2998 RMK A01 T03540191  RH  038%=      5-min Rain = 0
KWA1 172145Z 15016KT 35/19 A2998 RMK A01 T03540191  RH  038%=      5-min Rain = 0
KWA1 172146Z 16015KT 35/19 A2997 RMK A01 T03530192  RH  039%=      5-min Rain = 0
KWA1 172147Z 16017G22KT 35/19 A2997 RMK A01 T03530191  RH  039%=      5-min Rain = 0
KWA1 172148Z 16018KT 35/19 A2997 RMK A01 T03540189  RH  038%=      5-min Rain = 0
KWA1 172149Z 15019KT 36/19 A2997 RMK A01 T03560188  RH  037%=      5-min Rain = 0
KWA1 172150Z 18017KT 36/19 A2997 RMK A01 T03550188  RH  038%=      5-min Rain = 0
KWA1 172151Z 17015KT 36/19 A2997 RMK A01 T03550188  RH  037%=      5-min Rain = 0
KWA1 172152Z 14014KT 36/19 A2997 RMK A01 T03560186  RH  037%=      5-min Rain = 0
KWA1 172153Z 13012KT 35/19 A2997 RMK A01 T03540187  RH  037%=      5-min Rain = 0
KWA1 172154Z 16014KT 36/19 A2997 RMK A01 T03550188  RH  038%=      5-min Rain = 0
KWA1 172155Z 16020KT 36/19 A2997 RMK A01 T03570185  RH  037%=      5-min Rain = 0
KWA1 172156Z 17019KT 36/18 A2997 RMK A01 T03570184  RH  036%=      5-min Rain = 0
KWA1 172157Z 17018KT 36/19 A2997 RMK A01 T03570186  RH  037%=      5-min Rain = 0
KWA1 172158Z 16015KT 36/19 A2997 RMK A01 T03580186  RH  036%=      5-min Rain = 0
KWA1 172159Z 16017KT 36/18 A2997 RMK A01 T03570184  RH  036%=      5-min Rain = 0
KWA1 172200Z 16014KT 36/18 A2997 RMK A01 T03550182  RH  036%=      5-min Rain = 0
KWA1 172201Z 17012KT 35/18 A2997 RMK A01 T03530182  RH  036%=      5-min Rain = 0
KWA1 172202Z 15009KT 35/19 A2997 RMK A01 T03540185  RH  037%=      5-min Rain = 0
KWA1 172203Z 15012KT 36/19 A2997 RMK A01 T03560186  RH  037%=      5-min Rain = 0
KWA1 172204Z 16012KT 36/19 A2997 RMK A01 T03560189  RH  037%=      5-min Rain = 0
KWA1 172205Z 16018G23KT 36/19 A2996 RMK A01 T03560187  RH  037%=      5-min Rain = 0
KWA1 172206Z 17017KT 36/19 A2996 RMK A01 T03570188  RH  037%=      5-min Rain = 0
KWA1 172207Z 15015KT 36/19 A2996 RMK A01 T03590186  RH  036%=      5-min Rain = 0
KWA1 172208Z 16015G21KT 36/19 A2996 RMK A01 T03580185  RH  036%=      5-min Rain = 0
KWA1 172209Z 17015KT 36/19 A2996 RMK A01 T03570189  RH  037%=      5-min Rain = 0
KWA1 172210Z 15014KT 36/19 A2996 RMK A01 T03580185  RH  036%=      5-min Rain = 0
KWA1 172211Z 17013G19KT 35/19 A2996 RMK A01 T03540185  RH  037%=      5-min Rain = 0
KWA1 172212Z 17020KT 36/18 A2996 RMK A01 T03550184  RH  037%=      5-min Rain = 0
KWA1 172213Z 17021KT 36/18 A2996 RMK A01 T03580184  RH  036%=      5-min Rain = 0
KWA1 172214Z 15018KT 36/18 A2996 RMK A01 T03580182  RH  035%=      5-min Rain = 0
KWA1 172215Z 15014KT 36/18 A2996 RMK A01 T03570180  RH  035%=      5-min Rain = 0
KWA1 172216Z 16016G23KT 36/18 A2996 RMK A01 T03570183  RH  036%=      5-min Rain = 0
KWA1 172217Z 17017KT 36/18 A2996 RMK A01 T03570183  RH  036%=      5-min Rain = 0
KWA1 172218Z 17017KT 36/19 A2996 RMK A01 T03560185  RH  037%=      5-min Rain = 0
KWA1 172219Z 17016KT 36/19 A2996 RMK A01 T03550186  RH  037%=      5-min Rain = 0
KWA1 172220Z 17018KT 35/19 A2996 RMK A01 T03540186  RH  037%=      5-min Rain = 0
KWA1 172221Z 16016KT 35/18 A2996 RMK A01 T03540183  RH  037%=      5-min Rain = 0
KWA1 172222Z 16016KT 35/18 A2996 RMK A01 T03530184  RH  037%=      5-min Rain = 0
KWA1 172223Z 17016KT 35/18 A2996 RMK A01 T03530184  RH  037%=      5-min Rain = 0
KWA1 172224Z 17014KT 35/18 A2996 RMK A01 T03520184  RH  037%=      5-min Rain = 0
KWA1 172225Z 16013KT 35/18 A2996 RMK A01 T03530184  RH  037%=      5-min Rain = 0
KWA1 172226Z 17010KT 35/19 A2996 RMK A01 T03530185  RH  037%=      5-min Rain = 0
KWA1 172227Z 15012G18KT 35/19 A2996 RMK A01 T03520186  RH  038%=      5-min Rain = 0
KWA1 172228Z 16015KT 35/19 A2996 RMK A01 T03520186  RH  038%=      5-min Rain = 0
KWA1 172229Z 16015KT 35/19 A2996 RMK A01 T03520187  RH  038%=      5-min Rain = 0
KWA1 172230Z 17019KT 35/19 A2996 RMK A01 T03540188  RH  038%=      5-min Rain = 0
KWA1 172231Z 17019KT 36/19 A2996 RMK A01 T03550187  RH  037%=      5-min Rain = 0
KWA1 172232Z 15016KT 36/19 A2996 RMK A01 T03550187  RH  037%=      5-min Rain = 0
KWA1 172233Z 15015KT 36/19 A2996 RMK A01 T03560186  RH  037%=      5-min Rain = 0
KWA1 172234Z 15015KT 36/18 A2996 RMK A01 T03560184  RH  036%=      5-min Rain = 0
KWA1 172235Z 16015KT 36/18 A2995 RMK A01 T03550184  RH  037%=      5-min Rain = 0
KWA1 172236Z 16016KT 36/18 A2995 RMK A01 T03550183  RH  036%=      5-min Rain = 0
KWA1 172237Z 15018KT 36/18 A2995 RMK A01 T03550183  RH  036%=      5-min Rain = 0
KWA1 172238Z 16020KT 35/18 A2995 RMK A01 T03540184  RH  037%=      5-min Rain = 0
KWA1 172239Z 16015KT 35/18 A2995 RMK A01 T03540182  RH  036%=      5-min Rain = 0
KWA1 172240Z 16015KT 35/18 A2995 RMK A01 T03540184  RH  037%=      5-min Rain = 0
KWA1 172241Z 17017KT 35/18 A2995 RMK A01 T03540183  RH  036%=      5-min Rain = 0
KWA1 172242Z 16015KT 35/18 A2995 RMK A01 T03540184  RH  037%=      5-min Rain = 0
KWA1 172243Z 16016KT 36/18 A2995 RMK A01 T03550183  RH  036%=      5-min Rain = 0
KWA1 172244Z 16014KT 36/18 A2995 RMK A01 T03550180  RH  036%=      5-min Rain = 0
KWA1 172245Z 15013KT 36/18 A2995 RMK A01 T03550180  RH  036%=      5-min Rain = 0
KWA1 172246Z 15014KT 36/18 A2995 RMK A01 T03550181  RH  036%=      5-min Rain = 0
KWA1 172247Z 16018KT 36/18 A2995 RMK A01 T03560181  RH  036%=      5-min Rain = 0
KWA1 172248Z 17018KT 36/18 A2995 RMK A01 T03560181  RH  036%=      5-min Rain = 0
KWA1 172249Z 17018KT 36/18 A2995 RMK A01 T03570178  RH  035%=      5-min Rain = 0
KWA1 172250Z 16015KT 36/18 A2995 RMK A01 T03560180  RH  036%=      5-min Rain = 0
KWA1 172251Z 16015KT 36/18 A2995 RMK A01 T03570179  RH  035%=      5-min Rain = 0
KWA1 172252Z 15017KT 36/18 A2995 RMK A01 T03580176  RH  034%=      5-min Rain = 0
KWA1 172253Z 15017KT 36/18 A2995 RMK A01 T03560176  RH  035%=      5-min Rain = 0
KWA1 172254Z 16015KT 36/18 A2995 RMK A01 T03560176  RH  035%=      5-min Rain = 0
KWA1 172255Z 15016KT 36/18 A2995 RMK A01 T03550178  RH  035%=      5-min Rain = 0
KWA1 172256Z 14016KT 35/18 A2995 RMK A01 T03540182  RH  036%=      5-min Rain = 0
KWA1 172257Z 14015KT 35/18 A2995 RMK A01 T03540181  RH  036%=      5-min Rain = 0
KWA1 172258Z 15017KT 35/18 A2994 RMK A01 T03540183  RH  037%=      5-min Rain = 0
KWA1 172259Z 15017KT 35/18 A2994 RMK A01 T03540182  RH  036%=      5-min Rain = 0
KWA1 172300Z 15019KT 35/18 A2994 RMK A01 T03530181  RH  036%=      5-min Rain = 0
KWA1 172301Z 15019KT 35/18 A2995 RMK A01 T03530180  RH  036%=      5-min Rain = 0
KWA1 172302Z 17017KT 35/18 A2995 RMK A01 T03520180  RH  036%=      5-min Rain = 0
KWA1 172303Z 16015KT 35/18 A2994 RMK A01 T03530180  RH  036%=      5-min Rain = 0
KWA1 172304Z 15013KT 35/18 A2995 RMK A01 T03540182  RH  036%=      5-min Rain = 0
KWA1 172305Z 15014KT 36/18 A2995 RMK A01 T03550181  RH  036%=      5-min Rain = 0
KWA1 172306Z 16014KT 36/18 A2994 RMK A01 T03550183  RH  036%=      5-min Rain = 0
KWA1 172307Z 16013KT 36/18 A2994 RMK A01 T03550184  RH  037%=      5-min Rain = 0
KWA1 172308Z 15013KT 36/18 A2994 RMK A01 T03560184  RH  036%=      5-min Rain = 0
KWA1 172309Z 15013KT 36/18 A2994 RMK A01 T03560183  RH  036%=      5-min Rain = 0
KWA1 172310Z 15013G20KT 35/18 A2994 RMK A01 T03540184  RH  037%=      5-min Rain = 0
KWA1 172311Z 15017KT 36/18 A2994 RMK A01 T03550183  RH  036%=      5-min Rain = 0
KWA1 172312Z 15017KT 35/18 A2994 RMK A01 T03540180  RH  036%=      5-min Rain = 0
KWA1 172313Z 14015KT 35/18 A2994 RMK A01 T03520179  RH  036%=      5-min Rain = 0
KWA1 172314Z 15014KT 35/18 A2994 RMK A01 T03500180  RH  037%=      5-min Rain = 0
KWA1 172315Z 14013KT 35/18 A2994 RMK A01 T03500181  RH  037%=      5-min Rain = 0
KWA1 172316Z 15013KT 35/18 A2994 RMK A01 T03510180  RH  036%=      5-min Rain = 0
KWA1 172317Z 15015KT 35/18 A2994 RMK A01 T03510181  RH  037%=      5-min Rain = 0
KWA1 172318Z 15016KT 35/18 A2994 RMK A01 T03530181  RH  036%=      5-min Rain = 0
KWA1 172319Z 17016KT 36/18 A2994 RMK A01 T03550180  RH  036%=      5-min Rain = 0
KWA1 172320Z 17016KT 36/18 A2994 RMK A01 T03560176  RH  035%=      5-min Rain = 0
KWA1 172321Z 16016KT 36/17 A2994 RMK A01 T03550173  RH  034%=      5-min Rain = 0
KWA1 172322Z 16014KT 35/17 A2994 RMK A01 T03540174  RH  034%=      5-min Rain = 0
KWA1 172323Z 16015KT 35/18 A2994 RMK A01 T03540176  RH  035%=      5-min Rain = 0
KWA1 172324Z 16014KT 35/18 A2994 RMK A01 T03530177  RH  035%=      5-min Rain = 0
KWA1 172325Z 16014G19KT 35/18 A2994 RMK A01 T03530177  RH  035%=      5-min Rain = 0
KWA1 172326Z 17019KT 35/18 A2994 RMK A01 T03530177  RH  035%=      5-min Rain = 0
KWA1 172327Z 16016G21KT 35/18 A2994 RMK A01 T03540178  RH  035%=      5-min Rain = 0
KWA1 172328Z 16018KT 36/17 A2994 RMK A01 T03550173  RH  034%=      5-min Rain = 0
KWA1 172329Z 17015KT 35/17 A2994 RMK A01 T03540171  RH  034%=      5-min Rain = 0
KWA1 172330Z 17018KT 36/17 A2994 RMK A01 T03550172  RH  034%=      5-min Rain = 0
KWA1 172331Z 17016KT 36/18 A2994 RMK A01 T03550175  RH  035%=      5-min Rain = 0
KWA1 172332Z 18018KT 35/18 A2994 RMK A01 T03530176  RH  035%=      5-min Rain = 0
KWA1 172333Z 17015KT 35/18 A2994 RMK A01 T03530176  RH  035%=      5-min Rain = 0
KWA1 172334Z 17014KT 35/18 A2994 RMK A01 T03540176  RH  035%=      5-min Rain = 0
KWA1 172335Z 17016KT 35/18 A2993 RMK A01 T03530176  RH  035%=      5-min Rain = 0
KWA1 172336Z 17019KT 35/18 A2993 RMK A01 T03520177  RH  036%=      5-min Rain = 0
KWA1 172337Z 17016KT 35/18 A2993 RMK A01 T03520178  RH  036%=      5-min Rain = 0
KWA1 172338Z 17016KT 35/18 A2993 RMK A01 T03530177  RH  035%=      5-min Rain = 0
KWA1 172339Z 16016KT 35/18 A2993 RMK A01 T03520176  RH  035%=      5-min Rain = 0
KWA1 172340Z 16015KT 35/18 A2993 RMK A01 T03520177  RH  036%=      5-min Rain = 0
KWA1 172341Z 14014KT 35/18 A2993 RMK A01 T03510177  RH  036%=      5-min Rain = 0
KWA1 172342Z 15012G17KT 35/18 A2993 RMK A01 T03500179  RH  036%=      5-min Rain = 0
KWA1 172343Z 15014KT 35/18 A2993 RMK A01 T03500180  RH  037%=      5-min Rain = 0
KWA1 172344Z 15013KT 35/18 A2993 RMK A01 T03510180  RH  037%=      5-min Rain = 0
KWA1 172345Z 15014KT 35/18 A2993 RMK A01 T03510182  RH  037%=      5-min Rain = 0
KWA1 172346Z 16017KT 35/18 A2993 RMK A01 T03510179  RH  036%=      5-min Rain = 0
KWA1 172347Z 16015KT 35/18 A2993 RMK A01 T03510178  RH  036%=      5-min Rain = 0
KWA1 172348Z 17014KT 35/18 A2993 RMK A01 T03510176  RH  036%=      5-min Rain = 0
KWA1 172349Z 17015KT 35/17 A2993 RMK A01 T03510171  RH  034%=      5-min Rain = 0
KWA1 172350Z 16016KT 35/17 A2993 RMK A01 T03520174  RH  035%=      5-min Rain = 0
KWA1 172351Z 16019KT 35/17 A2993 RMK A01 T03520173  RH  035%=      5-min Rain = 0
KWA1 172352Z 17018KT 35/17 A2993 RMK A01 T03500174  RH  035%=      5-min Rain = 0
KWA1 172353Z 16016KT 35/17 A2993 RMK A01 T03500174  RH  035%=      5-min Rain = 0
KWA1 172354Z 16017KT 35/17 A2993 RMK A01 T03500172  RH  035%=      5-min Rain = 0
KWA1 172355Z 17017KT 35/17 A2993 RMK A01 T03500173  RH  035%=      5-min Rain = 0
KWA1 172356Z 17015KT 35/17 A2993 RMK A01 T03500174  RH  035%=      5-min Rain = 0
KWA1 172357Z 18016KT 35/18 A2993 RMK A01 T03510175  RH  035%=      5-min Rain = 0
KWA1 172358Z 17016KT 35/18 A2993 RMK A01 T03510175  RH  035%=      5-min Rain = 0
KWA1 172359Z 17014KT 35/17 A2993 RMK A01 T03510174  RH  035%=      5-min Rain = 0
KWA1 180000Z 17014KT 35/18 A2993 RMK A01 T03510175  RH  035%=      5-min Rain = 0
KWA1 180001Z 17016KT 35/17 A2993 RMK A01 T03510174  RH  035%=      5-min Rain = 0
KWA1 180002Z 16015KT 35/17 A2993 RMK A01 T03510172  RH  035%=      5-min Rain = 0
KWA1 180003Z 15014KT 35/17 A2993 RMK A01 T03510172  RH  035%=      5-min Rain = 0
KWA1 180004Z 16016KT 35/17 A2993 RMK A01 T03500172  RH  035%=      5-min Rain = 0
KWA1 180005Z 16018KT 35/17 A2993 RMK A01 T03500170  RH  034%=      5-min Rain = 0
KWA1 180006Z 15019KT 35/17 A2993 RMK A01 T03490168  RH  034%=      5-min Rain = 0
KWA1 180007Z 15017KT 35/17 A2993 RMK A01 T03490169  RH  034%=      5-min Rain = 0
KWA1 180008Z 17016KT 35/17 A2993 RMK A01 T03480171  RH  035%=      5-min Rain = 0
KWA1 180009Z 18014KT 35/18 A2993 RMK A01 T03480175  RH  036%=      5-min Rain = 0
KWA1 180010Z 17015KT 35/18 A2993 RMK A01 T03490176  RH  036%=      5-min Rain = 0
KWA1 180011Z 17017KT 35/18 A2993 RMK A01 T03490176  RH  036%=      5-min Rain = 0
KWA1 180012Z 17018KT 35/18 A2993 RMK A01 T03490176  RH  036%=      5-min Rain = 0
KWA1 180013Z 17015KT 35/18 A2993 RMK A01 T03480177  RH  036%=      5-min Rain = 0
KWA1 180014Z 17018KT 35/18 A2993 RMK A01 T03480178  RH  037%=      5-min Rain = 0
KWA1 180015Z 17017KT 35/18 A2993 RMK A01 T03480178  RH  037%=      5-min Rain = 0
KWA1 180016Z 17015KT 35/18 A2993 RMK A01 T03480179  RH  037%=      5-min Rain = 0
KWA1 180017Z 17016KT 35/18 A2993 RMK A01 T03480179  RH  037%=      5-min Rain = 0
KWA1 180018Z 17016KT 35/18 A2993 RMK A01 T03480178  RH  037%=      5-min Rain = 0
KWA1 180019Z 15015KT 35/18 A2993 RMK A01 T03470177  RH  037%=      5-min Rain = 0
KWA1 180020Z 16016KT 35/18 A2993 RMK A01 T03470177  RH  036%=      5-min Rain = 0
KWA1 180021Z 17015KT 35/18 A2993 RMK A01 T03460176  RH  036%=      5-min Rain = 0
KWA1 180022Z 17015KT 35/18 A2993 RMK A01 T03460175  RH  036%=      5-min Rain = 0
KWA1 180023Z 17015KT 35/17 A2993 RMK A01 T03460174  RH  036%=      5-min Rain = 0
KWA1 180024Z 17016KT 35/17 A2993 RMK A01 T03460174  RH  036%=      5-min Rain = 0
KWA1 180025Z 18016KT 35/18 A2993 RMK A01 T03450175  RH  037%=      5-min Rain = 0
KWA1 180026Z 16016KT 35/18 A2993 RMK A01 T03460177  RH  037%=      5-min Rain = 0
KWA1 180027Z 15016KT 35/18 A2993 RMK A01 T03460179  RH  037%=      5-min Rain = 0
KWA1 180028Z 16018KT 35/18 A2993 RMK A01 T03450178  RH  037%=      5-min Rain = 0
KWA1 180029Z 16014KT 35/18 A2993 RMK A01 T03450179  RH  038%=      5-min Rain = 0
KWA1 180030Z 16014KT 34/18 A2993 RMK A01 T03440179  RH  038%=      5-min Rain = 0
KWA1 180031Z 17014KT 34/18 A2993 RMK A01 T03440180  RH  038%=      5-min Rain = 0
KWA1 180032Z 16015KT 34/18 A2993 RMK A01 T03440180  RH  038%=      5-min Rain = 0
KWA1 180033Z 15016KT 34/18 A2993 RMK A01 T03440181  RH  038%=      5-min Rain = 0
KWA1 180034Z 15016KT 34/18 A2993 RMK A01 T03440181  RH  038%=      5-min Rain = 0
KWA1 180035Z 16015KT 34/18 A2993 RMK A01 T03430180  RH  038%=      5-min Rain = 0
KWA1 180036Z 16015KT 34/18 A2993 RMK A01 T03430181  RH  038%=      5-min Rain = 0
KWA1 180037Z 16012KT 34/18 A2993 RMK A01 T03430181  RH  038%=      5-min Rain = 0
KWA1 180038Z 16016KT 34/18 A2993 RMK A01 T03430181  RH  038%=      5-min Rain = 0
KWA1 180039Z 15015KT 34/18 A2993 RMK A01 T03430180  RH  038%=      5-min Rain = 0
KWA1 180040Z 15013KT 34/18 A2993 RMK A01 T03430181  RH  038%=      5-min Rain = 0
KWA1 180041Z 16015KT 34/18 A2993 RMK A01 T03430181  RH  038%=      5-min Rain = 0
KWA1 180042Z 15013KT 34/18 A2993 RMK A01 T03420180  RH  038%=      5-min Rain = 0
KWA1 180043Z 15014KT 34/18 A2993 RMK A01 T03420180  RH  038%=      5-min Rain = 0
KWA1 180044Z 16015KT 34/18 A2993 RMK A01 T03420179  RH  038%=      5-min Rain = 0
KWA1 180045Z 15014KT 34/18 A2993 RMK A01 T03410179  RH  038%=      5-min Rain = 0
KWA1 180046Z 15016KT 34/18 A2993 RMK A01 T03410178  RH  038%=      5-min Rain = 0
KWA1 180047Z 14015KT 34/18 A2993 RMK A01 T03400178  RH  038%=      5-min Rain = 0
KWA1 180048Z 14015KT 34/18 A2993 RMK A01 T03400177  RH  038%=      5-min Rain = 0
KWA1 180049Z 15016KT 34/18 A2994 RMK A01 T03390177  RH  038%=      5-min Rain = 0
KWA1 180050Z 15015KT 34/18 A2994 RMK A01 T03390177  RH  038%=      5-min Rain = 0
KWA1 180051Z 15012KT 34/18 A2994 RMK A01 T03390178  RH  039%=      5-min Rain = 0
KWA1 180052Z 15012KT 34/18 A2994 RMK A01 T03390178  RH  039%=      5-min Rain = 0
KWA1 180053Z 15013KT 34/18 A2994 RMK A01 T03390178  RH  039%=      5-min Rain = 0
KWA1 180054Z 15015KT 34/18 A2994 RMK A01 T03390177  RH  038%=      5-min Rain = 0
KWA1 180055Z 15013KT 34/18 A2994 RMK A01 T03380177  RH  038%=      5-min Rain = 0
KWA1 180056Z 16011KT 34/18 A2994 RMK A01 T03380178  RH  039%=      5-min Rain = 0
KWA1 180057Z 17011G16KT 34/18 A2994 RMK A01 T03380179  RH  039%=      5-min Rain = 0
KWA1 180058Z 16012KT 34/18 A2994 RMK A01 T03370180  RH  039%=      5-min Rain = 0
KWA1 180059Z 17013KT 34/18 A2994 RMK A01 T03370180  RH  039%=      5-min Rain = 0
KWA1 180100Z 16013KT 34/18 A2994 RMK A01 T03360180  RH  039%=      5-min Rain = 0
KWA1 180101Z 16011KT 34/18 A2994 RMK A01 T03360180  RH  040%=      5-min Rain = 0
KWA1 180102Z 16011KT 34/18 A2994 RMK A01 T03360181  RH  040%=      5-min Rain = 0
KWA1 180103Z 16011KT 34/18 A2994 RMK A01 T03360181  RH  040%=      5-min Rain = 0
KWA1 180104Z 16015KT 34/18 A2994 RMK A01 T03350180  RH  040%=      5-min Rain = 0
KWA1 180105Z 15013KT 34/18 A2994 RMK A01 T03350180  RH  040%=      5-min Rain = 0
KWA1 180106Z 16012KT 34/18 A2994 RMK A01 T03350180  RH  040%=      5-min Rain = 0
KWA1 180107Z 16012KT 33/18 A2994 RMK A01 T03340180  RH  040%=      5-min Rain = 0
KWA1 180108Z 16014KT 33/18 A2994 RMK A01 T03340180  RH  040%=      5-min Rain = 0
KWA1 180109Z 16011KT 33/18 A2994 RMK A01 T03340180  RH  040%=      5-min Rain = 0
KWA1 180110Z 15011KT 33/18 A2994 RMK A01 T03330180  RH  040%=      5-min Rain = 0
KWA1 180111Z 16012KT 33/18 A2994 RMK A01 T03330180  RH  040%=      5-min Rain = 0
KWA1 180112Z 16012KT 33/18 A2994 RMK A01 T03320180  RH  040%=      5-min Rain = 0
KWA1 180113Z 16013KT 33/18 A2994 RMK A01 T03320180  RH  040%=      5-min Rain = 0
KWA1 180114Z 15011KT 33/18 A2994 RMK A01 T03320180  RH  041%=      5-min Rain = 0
KWA1 180115Z 16013KT 33/18 A2994 RMK A01 T03310181  RH  041%=      5-min Rain = 0
KWA1 180116Z 16012KT 33/18 A2994 RMK A01 T03310180  RH  041%=      5-min Rain = 0
KWA1 180117Z 15014KT 33/18 A2994 RMK A01 T03310180  RH  041%=      5-min Rain = 0
KWA1 180118Z 15015KT 33/18 A2994 RMK A01 T03310179  RH  041%=      5-min Rain = 0
KWA1 180119Z 14011KT 33/18 A2994 RMK A01 T03310180  RH  041%=      5-min Rain = 0
KWA1 180120Z 14013KT 33/18 A2994 RMK A01 T03300180  RH  041%=      5-min Rain = 0
KWA1 180121Z 14014KT 33/18 A2994 RMK A01 T03300180  RH  041%=      5-min Rain = 0
KWA1 180122Z 15016KT 33/18 A2994 RMK A01 T03300180  RH  041%=      5-min Rain = 0
KWA1 180123Z 15016KT 33/18 A2994 RMK A01 T03290179  RH  041%=      5-min Rain = 0
KWA1 180124Z 14013KT 33/18 A2994 RMK A01 T03290180  RH  041%=      5-min Rain = 0
KWA1 180125Z 15013KT 33/18 A2994 RMK A01 T03290180  RH  041%=      5-min Rain = 0
KWA1 180126Z 15013KT 33/18 A2994 RMK A01 T03280179  RH  041%=      5-min Rain = 0
KWA1 180127Z 15014KT 33/18 A2994 RMK A01 T03280180  RH  041%=      5-min Rain = 0
KWA1 180128Z 15012KT 33/18 A2994 RMK A01 T03280180  RH  041%=      5-min Rain = 0
KWA1 180129Z 16012KT 33/18 A2994 RMK A01 T03270179  RH  041%=      5-min Rain = 0
KWA1 180130Z 16012KT 33/18 A2994 RMK A01 T03270180  RH  042%=      5-min Rain = 0
KWA1 180131Z 15011KT 33/18 A2994 RMK A01 T03260180  RH  042%=      5-min Rain = 0
KWA1 180132Z 15010KT 33/18 A2994 RMK A01 T03260180  RH  042%=      5-min Rain = 0
KWA1 180133Z 15009KT 33/18 A2995 RMK A01 T03250179  RH  042%=      5-min Rain = 0
KWA1 180134Z 16012KT 32/18 A2995 RMK A01 T03240179  RH  042%=      5-min Rain = 0
KWA1 180135Z 15012KT 32/18 A2995 RMK A01 T03240179  RH  042%=      5-min Rain = 0
KWA1 180136Z 15011KT 32/18 A2995 RMK A01 T03240179  RH  042%=      5-min Rain = 0
KWA1 180137Z 15011KT 32/18 A2995 RMK A01 T03240179  RH  042%=      5-min Rain = 0
KWA1 180138Z 16011KT 32/18 A2995 RMK A01 T03230179  RH  042%=      5-min Rain = 0
KWA1 180139Z 15010KT 32/18 A2995 RMK A01 T03230178  RH  042%=      5-min Rain = 0
KWA1 180140Z 16009KT 32/18 A2995 RMK A01 T03220178  RH  042%=      5-min Rain = 0
KWA1 180141Z 15010KT 32/18 A2995 RMK A01 T03220179  RH  043%=      5-min Rain = 0
KWA1 180142Z 16009KT 32/18 A2995 RMK A01 T03210178  RH  043%=      5-min Rain = 0
KWA1 180143Z 16010KT 32/18 A2995 RMK A01 T03210179  RH  043%=      5-min Rain = 0
KWA1 180144Z 16009KT 32/18 A2995 RMK A01 T03200178  RH  043%=      5-min Rain = 0
KWA1 180145Z 16010KT 32/18 A2995 RMK A01 T03200179  RH  043%=      5-min Rain = 0
KWA1 180146Z 15009KT 32/18 A2995 RMK A01 T03200179  RH  043%=      5-min Rain = 0
KWA1 180147Z 15009KT 32/18 A2995 RMK A01 T03190179  RH  043%=      5-min Rain = 0
KWA1 180148Z 15008KT 32/18 A2995 RMK A01 T03190179  RH  043%=      5-min Rain = 0
KWA1 180149Z 15008KT 32/18 A2995 RMK A01 T03180179  RH  043%=      5-min Rain = 0
KWA1 180150Z 15008KT 32/18 A2995 RMK A01 T03170179  RH  044%=      5-min Rain = 0
KWA1 180151Z 15008KT 32/18 A2995 RMK A01 T03160179  RH  044%=      5-min Rain = 0
KWA1 180152Z 15008KT 32/18 A2995 RMK A01 T03160179  RH  044%=      5-min Rain = 0
KWA1 180153Z 15007KT 32/18 A2996 RMK A01 T03150179  RH  044%=      5-min Rain = 0
KWA1 180154Z 15008KT 32/18 A2996 RMK A01 T03150178  RH  044%=      5-min Rain = 0
KWA1 180155Z 15008KT 31/18 A2996 RMK A01 T03140179  RH  044%=      5-min Rain = 0
KWA1 180156Z 15009KT 31/18 A2996 RMK A01 T03140179  RH  045%=      5-min Rain = 0
KWA1 180157Z 15009KT 31/18 A2996 RMK A01 T03140179  RH  045%=      5-min Rain = 0
KWA1 180158Z 15009KT 31/18 A2996 RMK A01 T03140179  RH  044%=      5-min Rain = 0
KWA1 180159Z 15008KT 31/18 A2996 RMK A01 T03140179  RH  044%=      5-min Rain = 0
KWA1 180200Z 16008KT 31/18 A2996 RMK A01 T03140179  RH  045%=      5-min Rain = 0
KWA1 180201Z 15007KT 31/18 A2996 RMK A01 T03140179  RH  045%=      5-min Rain = 0
KWA1 180202Z 15007KT 31/18 A2996 RMK A01 T03130179  RH  045%=      5-min Rain = 0
KWA1 180203Z 15007KT 31/18 A2996 RMK A01 T03120179  RH  045%=      5-min Rain = 0
KWA1 180204Z 15007KT 31/18 A2996 RMK A01 T03120179  RH  045%=      5-min Rain = 0
KWA1 180205Z 15007KT 31/18 A2996 RMK A01 T03110179  RH  045%=      5-min Rain = 0
KWA1 180206Z 14006KT 31/18 A2996 RMK A01 T03100179  RH  046%=      5-min Rain = 0
KWA1 180207Z 14007KT 31/18 A2996 RMK A01 T03090179  RH  046%=      5-min Rain = 0
KWA1 180208Z 14006KT 31/18 A2996 RMK A01 T03090179  RH  046%=      5-min Rain = 0
KWA1 180209Z 14006KT 31/18 A2996 RMK A01 T03090179  RH  046%=      5-min Rain = 0
KWA1 180210Z 13006KT 31/18 A2996 RMK A01 T03090179  RH  046%=      5-min Rain = 0
KWA1 180211Z 14006KT 31/18 A2996 RMK A01 T03090179  RH  046%=      5-min Rain = 0
KWA1 180212Z 14007KT 31/18 A2996 RMK A01 T03090178  RH  046%=      5-min Rain = 0
KWA1 180213Z 14006KT 31/18 A2996 RMK A01 T03090179  RH  046%=      5-min Rain = 0
KWA1 180214Z 14006KT 31/18 A2996 RMK A01 T03080179  RH  046%=      5-min Rain = 0
KWA1 180215Z 14006KT 31/18 A2996 RMK A01 T03080179  RH  046%=      5-min Rain = 0
KWA1 180216Z 14007KT 31/18 A2996 RMK A01 T03080179  RH  046%=      5-min Rain = 0
KWA1 180217Z 14006KT 31/18 A2996 RMK A01 T03070179  RH  046%=      5-min Rain = 0
KWA1 180218Z 14007KT 31/18 A2996 RMK A01 T03070179  RH  046%=      5-min Rain = 0
KWA1 180219Z 14007KT 31/18 A2996 RMK A01 T03070179  RH  046%=      5-min Rain = 0
KWA1 180220Z 14008KT 31/18 A2996 RMK A01 T03070179  RH  047%=      5-min Rain = 0
KWA1 180221Z 14009KT 31/18 A2996 RMK A01 T03070179  RH  046%=      5-min Rain = 0
KWA1 180222Z 14008KT 31/18 A2996 RMK A01 T03080179  RH  046%=      5-min Rain = 0
KWA1 180223Z 14009KT 31/18 A2996 RMK A01 T03080179  RH  046%=      5-min Rain = 0
KWA1 180224Z 15009KT 31/18 A2996 RMK A01 T03080179  RH  046%=      5-min Rain = 0
KWA1 180225Z 14008KT 31/18 A2996 RMK A01 T03080179  RH  046%=      5-min Rain = 0
KWA1 180226Z 14008KT 31/18 A2996 RMK A01 T03080179  RH  046%=      5-min Rain = 0
KWA1 180227Z 14007KT 31/18 A2996 RMK A01 T03070179  RH  046%=      5-min Rain = 0
KWA1 180228Z 14008KT 31/18 A2996 RMK A01 T03070179  RH  046%=      5-min Rain = 0
KWA1 180229Z 14008KT 31/18 A2996 RMK A01 T03060179  RH  046%=      5-min Rain = 0
KWA1 180230Z 14009KT 31/18 A2996 RMK A01 T03060179  RH  046%=      5-min Rain = 0
KWA1 180231Z 14008KT 31/18 A2996 RMK A01 T03070179  RH  046%=      5-min Rain = 0
KWA1 180232Z 14008KT 31/18 A2996 RMK A01 T03070179  RH  046%=      5-min Rain = 0
KWA1 180233Z 14008KT 31/18 A2996 RMK A01 T03070179  RH  046%=      5-min Rain = 0
KWA1 180234Z 14008KT 31/18 A2997 RMK A01 T03070179  RH  046%=      5-min Rain = 0
KWA1 180235Z 14008KT 31/18 A2997 RMK A01 T03070179  RH  047%=      5-min Rain = 0
KWA1 180236Z 14009KT 31/18 A2997 RMK A01 T03060179  RH  047%=      5-min Rain = 0
KWA1 180237Z 14008KT 31/18 A2997 RMK A01 T03060179  RH  047%=      5-min Rain = 0
KWA1 180238Z 14008KT 31/18 A2997 RMK A01 T03060179  RH  047%=      5-min Rain = 0
KWA1 180239Z 14007KT 31/18 A2997 RMK A01 T03060179  RH  047%=      5-min Rain = 0
KWA1 180240Z 14007KT 31/18 A2997 RMK A01 T03050179  RH  047%=      5-min Rain = 0
KWA1 180241Z 14008KT 30/18 A2997 RMK A01 T03040179  RH  047%=      5-min Rain = 0
KWA1 180242Z 14007KT 30/18 A2997 RMK A01 T03040180  RH  047%=      5-min Rain = 0
KWA1 180243Z 14007KT 30/18 A2997 RMK A01 T03040179  RH  047%=      5-min Rain = 0
KWA1 180244Z 14007KT 30/18 A2997 RMK A01 T03030179  RH  048%=      5-min Rain = 0
KWA1 180245Z 14006KT 30/18 A2997 RMK A01 T03030180  RH  048%=      5-min Rain = 0
KWA1 180246Z 14006KT 30/18 A2997 RMK A01 T03030180  RH  048%=      5-min Rain = 0
KWA1 180247Z 14006KT 30/18 A2997 RMK A01 T03020179  RH  048%=      5-min Rain = 0
KWA1 180248Z 14006KT 30/18 A2997 RMK A01 T03020179  RH  048%=      5-min Rain = 0
KWA1 180249Z 14007KT 30/18 A2997 RMK A01 T03010180  RH  048%=      5-min Rain = 0
KWA1 180250Z 14006KT 30/18 A2997 RMK A01 T03010180  RH  048%=      5-min Rain = 0
KWA1 180251Z 14006KT 30/18 A2997 RMK A01 T03010179  RH  048%=      5-min Rain = 0
KWA1 180252Z 14007KT 30/18 A2998 RMK A01 T03000179  RH  048%=      5-min Rain = 0
KWA1 180253Z 14006KT 30/18 A2998 RMK A01 T02990179  RH  049%=      5-min Rain = 0
KWA1 180254Z 14007KT 30/18 A2998 RMK A01 T02990179  RH  049%=      5-min Rain = 0
KWA1 180255Z 14006KT 30/18 A2998 RMK A01 T02990179  RH  049%=      5-min Rain = 0
KWA1 180256Z 14007KT 30/18 A2998 RMK A01 T02980179  RH  049%=      5-min Rain = 0
KWA1 180257Z 14007KT 30/18 A2998 RMK A01 T02990180  RH  049%=      5-min Rain = 0
KWA1 180258Z 14006KT 30/18 A2998 RMK A01 T02980180  RH  049%=      5-min Rain = 0
KWA1 180259Z 14006KT 30/18 A2998 RMK A01 T02980180  RH  049%=      5-min Rain = 0
KWA1 180300Z 14007KT 30/18 A2998 RMK A01 T02980180  RH  049%=      5-min Rain = 0
KWA1 180301Z 14006KT 30/18 A2998 RMK A01 T02970179  RH  049%=      5-min Rain = 0
KWA1 180302Z 13007KT 30/18 A2998 RMK A01 T02960179  RH  049%=      5-min Rain = 0
KWA1 180303Z 13006KT 30/18 A2998 RMK A01 T02950179  RH  050%=      5-min Rain = 0
KWA1 180304Z 13007KT 30/18 A2998 RMK A01 T02950179  RH  050%=      5-min Rain = 0
KWA1 180305Z 14006KT 29/18 A2998 RMK A01 T02940179  RH  050%=      5-min Rain = 0
KWA1 180306Z 13007KT 29/18 A2998 RMK A01 T02940179  RH  050%=      5-min Rain = 0
KWA1 180307Z 13006KT 29/18 A2998 RMK A01 T02940179  RH  050%=      5-min Rain = 0
KWA1 180308Z 13006KT 29/18 A2998 RMK A01 T02930179  RH  050%=      5-min Rain = 0
KWA1 180309Z 14007KT 29/18 A2998 RMK A01 T02930179  RH  050%=      5-min Rain = 0
KWA1 180310Z 14006KT 29/18 A2999 RMK A01 T02920179  RH  051%=      5-min Rain = 0
KWA1 180311Z 14006KT 29/18 A2999 RMK A01 T02920179  RH  051%=      5-min Rain = 0
KWA1 180312Z 13006KT 29/18 A2999 RMK A01 T02910179  RH  051%=      5-min Rain = 0
KWA1 180313Z 14006KT 29/18 A2999 RMK A01 T02900179  RH  051%=      5-min Rain = 0
KWA1 180314Z 14006KT 29/18 A2999 RMK A01 T02900179  RH  051%=      5-min Rain = 0
KWA1 180315Z 14006KT 29/18 A2999 RMK A01 T02890179  RH  051%=      5-min Rain = 0
KWA1 180316Z 13006KT 29/18 A2999 RMK A01 T02880179  RH  052%=      5-min Rain = 0
KWA1 180317Z 14006KT 29/18 A2999 RMK A01 T02890180  RH  052%=      5-min Rain = 0
KWA1 180318Z 14006KT 29/18 A2999 RMK A01 T02880180  RH  052%=      5-min Rain = 0
KWA1 180319Z 14006KT 29/18 A2999 RMK A01 T02880180  RH  052%=      5-min Rain = 0
KWA1 180320Z 14006KT 29/18 A2999 RMK A01 T02870180  RH  052%=      5-min Rain = 0
KWA1 180321Z 14006KT 29/18 A2999 RMK A01 T02870180  RH  052%=      5-min Rain = 0
KWA1 180322Z 14007KT 29/18 A2999 RMK A01 T02860180  RH  053%=      5-min Rain = 0
KWA1 180323Z 14007KT 29/18 A2999 RMK A01 T02860181  RH  053%=      5-min Rain = 0
KWA1 180324Z 14008KT 29/18 A2999 RMK A01 T02860181  RH  053%=      5-min Rain = 0
KWA1 180325Z 13007KT 29/18 A2999 RMK A01 T02870182  RH  053%=      5-min Rain = 0
KWA1 180326Z 14007KT 29/18 A2999 RMK A01 T02870183  RH  053%=      5-min Rain = 0
KWA1 180327Z 14007KT 29/18 A2999 RMK A01 T02870183  RH  053%=      5-min Rain = 0
KWA1 180328Z 14007KT 29/18 A2999 RMK A01 T02870183  RH  053%=      5-min Rain = 0
KWA1 180329Z 14007KT 29/18 A2999 RMK A01 T02870183  RH  053%=      5-min Rain = 0
KWA1 180330Z 13007KT 29/18 A2999 RMK A01 T02870184  RH  054%=      5-min Rain = 0
KWA1 180331Z 14007KT 29/18 A2999 RMK A01 T02870184  RH  054%=      5-min Rain = 0
KWA1 180332Z 13006KT 29/18 A2999 RMK A01 T02860184  RH  054%=      5-min Rain = 0
KWA1 180333Z 13006KT 29/18 A2999 RMK A01 T02870184  RH  054%=      5-min Rain = 0
KWA1 180334Z 14006KT 29/18 A2999 RMK A01 T02860184  RH  054%=      5-min Rain = 0
KWA1 180335Z 13006KT 29/19 A2999 RMK A01 T02860185  RH  054%=      5-min Rain = 0
KWA1 180336Z 14007KT 29/18 A2999 RMK A01 T02860184  RH  054%=      5-min Rain = 0
KWA1 180337Z 14007KT 29/19 A2999 RMK A01 T02860185  RH  054%=      5-min Rain = 0
KWA1 180338Z 13006KT 29/19 A2999 RMK A01 T02850185  RH  055%=      5-min Rain = 0
KWA1 180339Z 13006KT 29/19 A2999 RMK A01 T02850185  RH  055%=      5-min Rain = 0
KWA1 180340Z 14007KT 29/19 A2999 RMK A01 T02850186  RH  055%=      5-min Rain = 0
KWA1 180341Z 14007KT 29/19 A2999 RMK A01 T02850185  RH  055%=      5-min Rain = 0
KWA1 180342Z 14007KT 28/19 A30 RMK A01 T02840185  RH  055%=      5-min Rain = 0
KWA1 180343Z 14007KT 28/19 A30 RMK A01 T02840185  RH  055%=      5-min Rain = 0
KWA1 180344Z 14007KT 28/19 A30 RMK A01 T02840185  RH  055%=      5-min Rain = 0
KWA1 180345Z 14006KT 28/19 A30 RMK A01 T02840186  RH  055%=      5-min Rain = 0
KWA1 180346Z 14007KT 28/19 A30 RMK A01 T02840186  RH  055%=      5-min Rain = 0
KWA1 180347Z 14006KT 28/19 A30 RMK A01 T02840186  RH  055%=      5-min Rain = 0
KWA1 180348Z 14007KT 28/19 A30 RMK A01 T02840186  RH  055%=      5-min Rain = 0
KWA1 180349Z 14007KT 28/19 A30 RMK A01 T02840186  RH  055%=      5-min Rain = 0
KWA1 180350Z 14008KT 28/19 A30 RMK A01 T02840186  RH  055%=      5-min Rain = 0
KWA1 180351Z 14008KT 28/19 A30 RMK A01 T02840186  RH  055%=      5-min Rain = 0
KWA1 180352Z 14008KT 28/19 A30 RMK A01 T02840186  RH  055%=      5-min Rain = 0
KWA1 180353Z 14009KT 28/19 A30 RMK A01 T02840186  RH  055%=      5-min Rain = 0
KWA1 180354Z 14009KT 28/19 A30 RMK A01 T02840187  RH  055%=      5-min Rain = 0
KWA1 180355Z 14008KT 29/19 A30 RMK A01 T02850187  RH  055%=      5-min Rain = 0
KWA1 180356Z 14009KT 29/19 A30 RMK A01 T02850187  RH  055%=      5-min Rain = 0
KWA1 180357Z 14009KT 29/19 A30 RMK A01 T02850188  RH  056%=      5-min Rain = 0
KWA1 180358Z 14010KT 29/19 A30 RMK A01 T02850188  RH  056%=      5-min Rain = 0
KWA1 180359Z 14009KT 29/19 A30 RMK A01 T02860188  RH  055%=      5-min Rain = 0
KWA1 180400Z 14009KT 29/19 A30 RMK A01 T02860188  RH  056%=      5-min Rain = 0
KWA1 180401Z 14009KT 29/19 A30 RMK A01 T02860188  RH  056%=      5-min Rain = 0
KWA1 180402Z 14009KT 29/19 A30 RMK A01 T02860189  RH  056%=      5-min Rain = 0
KWA1 180403Z 14009KT 29/19 A30 RMK A01 T02860189  RH  056%=      5-min Rain = 0
KWA1 180404Z 14009KT 29/19 A30 RMK A01 T02860189  RH  056%=      5-min Rain = 0
KWA1 180405Z 14008KT 29/19 A30 RMK A01 T02850189  RH  056%=      5-min Rain = 0
KWA1 180406Z 14009KT 29/19 A30 RMK A01 T02850190  RH  056%=      5-min Rain = 0
KWA1 180407Z 14009KT 29/19 A30 RMK A01 T02860190  RH  056%=      5-min Rain = 0
KWA1 180408Z 14010KT 29/19 A30 RMK A01 T02850190  RH  056%=      5-min Rain = 0
KWA1 180409Z 14009KT 29/19 A30 RMK A01 T02850190  RH  056%=      5-min Rain = 0
KWA1 180410Z 14009KT 29/19 A30 RMK A01 T02850190  RH  057%=      5-min Rain = 0
KWA1 180411Z 14009KT 28/19 A30 RMK A01 T02840191  RH  057%=      5-min Rain = 0
KWA1 180412Z 14009KT 28/19 A30 RMK A01 T02840191  RH  057%=      5-min Rain = 0
KWA1 180413Z 14008KT 29/19 A30 RMK A01 T02850191  RH  057%=      5-min Rain = 0
KWA1 180414Z 14010KT 28/19 A30 RMK A01 T02840191  RH  057%=      5-min Rain = 0
KWA1 180415Z 14008KT 28/19 A30 RMK A01 T02840192  RH  057%=      5-min Rain = 0
KWA1 180416Z 14010KT 28/19 A30 RMK A01 T02840192  RH  057%=      5-min Rain = 0
KWA1 180417Z 14009KT 28/19 A30 RMK A01 T02840192  RH  058%=      5-min Rain = 0
KWA1 180418Z 14009KT 28/19 A30 RMK A01 T02840192  RH  057%=      5-min Rain = 0
KWA1 180419Z 14009KT 28/19 A30 RMK A01 T02840192  RH  058%=      5-min Rain = 0
KWA1 180420Z 14009KT 28/19 A30 RMK A01 T02840193  RH  058%=      5-min Rain = 0
KWA1 180421Z 14009KT 28/19 A30 RMK A01 T02830192  RH  058%=      5-min Rain = 0
KWA1 180422Z 14009KT 28/19 A30 RMK A01 T02830193  RH  058%=      5-min Rain = 0
KWA1 180423Z 14009KT 28/19 A30 RMK A01 T02830193  RH  058%=      5-min Rain = 0
KWA1 180424Z 14010KT 28/19 A30 RMK A01 T02830194  RH  058%=      5-min Rain = 0
KWA1 180425Z 14010KT 28/19 A30 RMK A01 T02830193  RH  058%=      5-min Rain = 0
KWA1 180426Z 14010KT 28/19 A30 RMK A01 T02830193  RH  058%=      5-min Rain = 0
KWA1 180427Z 14010KT 28/19 A30 RMK A01 T02830194  RH  058%=      5-min Rain = 0
KWA1 180428Z 14010KT 28/19 A30 RMK A01 T02830194  RH  058%=      5-min Rain = 0
KWA1 180429Z 14009KT 28/19 A30 RMK A01 T02830194  RH  058%=      5-min Rain = 0
KWA1 180430Z 14009KT 28/19 A30 RMK A01 T02830194  RH  058%=      5-min Rain = 0
KWA1 180431Z 14009KT 28/19 A30 RMK A01 T02840194  RH  058%=      5-min Rain = 0
KWA1 180432Z 14011KT 28/19 A30 RMK A01 T02830194  RH  058%=      5-min Rain = 0
KWA1 180433Z 14010KT 28/20 A30 RMK A01 T02830195  RH  059%=      5-min Rain = 0
KWA1 180434Z 14009KT 28/20 A30 RMK A01 T02830195  RH  059%=      5-min Rain = 0
KWA1 180435Z 14010KT 28/20 A30 RMK A01 T02840195  RH  059%=      5-min Rain = 0
KWA1 180436Z 14010KT 28/20 A30 RMK A01 T02830195  RH  059%=      5-min Rain = 0
KWA1 180437Z 14011KT 28/20 A30 RMK A01 T02830195  RH  059%=      5-min Rain = 0
KWA1 180438Z 14010KT 28/20 A30 RMK A01 T02840195  RH  059%=      5-min Rain = 0
KWA1 180439Z 15011KT 28/20 A30 RMK A01 T02840195  RH  059%=      5-min Rain = 0
KWA1 180440Z 14010KT 28/20 A30 RMK A01 T02840195  RH  059%=      5-min Rain = 0
KWA1 180441Z 14009KT 28/20 A30 RMK A01 T02840195  RH  059%=      5-min Rain = 0
KWA1 180442Z 14010KT 28/20 A30 RMK A01 T02830195  RH  059%=      5-min Rain = 0
KWA1 180443Z 14010KT 28/20 A30 RMK A01 T02830195  RH  059%=      5-min Rain = 0
KWA1 180444Z 15011KT 28/20 A30 RMK A01 T02830196  RH  059%=      5-min Rain = 0
KWA1 180445Z 14010KT 28/20 A30 RMK A01 T02820195  RH  059%=      5-min Rain = 0
KWA1 180446Z 14010KT 28/20 A30 RMK A01 T02830195  RH  059%=      5-min Rain = 0
KWA1 180447Z 15010KT 28/20 A30 RMK A01 T02830195  RH  059%=      5-min Rain = 0
KWA1 180448Z 14009KT 28/20 A30 RMK A01 T02820195  RH  059%=      5-min Rain = 0
KWA1 180449Z 14012KT 28/20 A30 RMK A01 T02820195  RH  059%=      5-min Rain = 0
KWA1 180450Z 14012KT 28/20 A30 RMK A01 T02820195  RH  059%=      5-min Rain = 0
KWA1 180451Z 14010KT 28/20 A30 RMK A01 T02830195  RH  059%=      5-min Rain = 0
KWA1 180452Z 15011KT 28/20 A30 RMK A01 T02830195  RH  059%=      5-min Rain = 0
KWA1 180453Z 14012KT 28/20 A30 RMK A01 T02830195  RH  059%=      5-min Rain = 0
KWA1 180454Z 14011KT 28/20 A30 RMK A01 T02830196  RH  059%=      5-min Rain = 0
KWA1 180455Z 14010KT 28/20 A30 RMK A01 T02830195  RH  059%=      5-min Rain = 0
KWA1 180456Z 14012KT 28/20 A30 RMK A01 T02830196  RH  059%=      5-min Rain = 0
KWA1 180457Z 14011KT 28/20 A30 RMK A01 T02830196  RH  059%=      5-min Rain = 0
KWA1 180458Z 14010KT 28/20 A30 RMK A01 T02830196  RH  059%=      5-min Rain = 0
KWA1 180459Z 15011KT 28/20 A30 RMK A01 T02830196  RH  059%=      5-min Rain = 0

Page generated in 0.1893 seconds.